Chosen Half Marathon & 5k 2017

Age Group Results

November 18, 2017


Split Second Productions

Half Marathon

Female Overall Winners

Place Name City Bib No Age Overall Time Back Chip Time Gun Time Chip Diff Pace
1 Emily Dunn San Antonio TX 2775 24 3   1:34:35.96 1:34:38.98 0:03.02 7:13/M
2 Janessa Dunn San Antonio TX 2782 24 6 2:10.51 1:36:46.47 1:36:49.50 0:03.03 7:23/M
3 Taylor Stewart San Antonio TX 2574 24 9 3:50.53 1:38:26.49 1:38:26.49 7:31/M
 

Female Masters Winners

Place Name City Bib No Age Overall Time Back Chip Time Gun Time Chip Diff Pace
1 Cathy Wilson McAllen TX 2189 41 17   1:42:05.41 1:42:07.99 0:02.58 7:48/M
 

Female 12 to 15

Place Name City Bib No Age Overall Time Back Chip Time Gun Time Chip Diff Pace
1 Adrianna Santamaria San Antonio TX 2813 15 201   2:11:21.76 2:11:52.36 0:30.60 10:02/M
2 Italy Ramos San Antonio TX 2812 15 202 0:00.08 2:11:21.84 2:11:52.18 0:30.34 10:02/M
3 Anna Swadick Helotes TX 2709 14 204 0:04.50 2:11:26.26 2:11:56.55 0:30.29 10:02/M
4 Hannah Phares Howe TX 2446 13 329 13:09.78 2:24:31.54 2:25:29.00 0:57.46 11:02/M
5 Carolyn Ambs New Braunfels TX 2407 15 471 32:25.93 2:43:47.69 2:44:25.59 0:37.90 12:30/M
 

Female 16 to 19

Place Name City Bib No Age Overall Time Back Chip Time Gun Time Chip Diff Pace
1 Ellie Ambs New Braunfels TX 2406 17 110   1:59:50.27 2:00:28.13 0:37.86 9:09/M
2 Madison Barclay Spring Branch TX 2581 19 523 52:29.88 2:52:20.15 2:53:34.73 1:14.58 13:09/M
3 Sarah Norris Martindale TX 2270 19 532 54:04.96 2:53:55.23 2:54:58.21 1:02.98 13:17/M
4 Noel Washington Katy TX 2305 19 548 57:32.10 2:57:22.37 2:57:34.38 0:12.01 13:32/M
5 Marlie Riojas San Antonio TX 2617 18 665 1:33:54.24 3:33:44.51 3:34:44.97 1:00.46 16:19/M
6 Madison Wallace SAN ANTONIO TX 2372 16 677 1:38:12.07 3:38:02.34 3:39:03.66 1:01.32 16:39/M
 

Female 20 to 24

Place Name City Bib No Age Overall Time Back Chip Time Gun Time Chip Diff Pace
1 Donna Tavakoli Pflugerville TX 2613 24 86   1:55:41.23 1:55:46.62 0:05.39 8:50/M
2 Sarah Hayes Austin TX 2660 21 91 0:42.90 1:56:24.13 1:56:31.32 0:07.19 8:53/M
3 Madaelynn Matula New Braunfels TX 2905 23 92 1:10.38 1:56:51.61 1:57:13.28 0:21.67 8:55/M
4 Kendra Ishida San Antonio TX 2618 24 169 11:23.58 2:07:04.81 2:08:12.51 1:07.70 9:42/M
5 Carolyn Garcia San Antonio TX 2908 23 172 11:56.82 2:07:38.05 2:08:11.26 0:33.21 9:45/M
6 Annie Baker San Antonio TX 2641 23 177 12:31.50 2:08:12.73 2:08:44.77 0:32.04 9:47/M
7 Taylor Zarbano Lubbock TX 2157 21 254 20:21.11 2:16:02.34 2:17:35.79 1:33.45 10:23/M
8 Erin Newland Austin TX 2753 22 271 23:11.77 2:18:53.00 2:19:45.82 0:52.82 10:36/M
9 Julie Riess Austin TX 2484 22 282 23:39.98 2:19:21.21 2:19:47.42 0:26.21 10:38/M
10 Daniela Fumagalli New Braunfels TX 2233 23 288 24:24.14 2:20:05.37 2:21:02.72 0:57.35 10:42/M
11 Tasha Zidek Kerrville TX 2710 23 302 26:05.22 2:21:46.45 2:22:10.95 0:24.50 10:49/M
12 Katie Nguyen San Marcos TX 2375 22 327 28:29.89 2:24:11.12 2:24:11.97 0:00.85 11:00/M
13 Christina Hastings Lago Vista TX 2764 24 347 30:08.74 2:25:49.97 2:26:53.56 1:03.59 11:08/M
14 Patience Pennington Kerrville TX 2907 20 390 34:45.87 2:30:27.10 2:31:30.33 1:03.23 11:29/M
15 Taylor Miller Bulverde TX 2682 24 486 50:54.87 2:46:36.10 2:47:47.10 1:11.00 12:43/M
16 Emma Edalatpour San Antonio TX 2580 20 522 56:38.37 2:52:19.60 2:53:34.78 1:15.18 13:09/M
17 Michelle Ross Austin TX 2468 23 538 58:57.70 2:54:38.93 2:55:23.66 0:44.73 13:20/M
18 Alessa Saldivar san marcos TX 2769 21 553 1:02:09.72 2:57:50.95 2:58:55.81 1:04.86 13:35/M
19 Andrea Alvarez San Marcos TX 2882 24 554 1:02:09.90 2:57:51.13 2:58:56.01 1:04.88 13:35/M
20 Grace Cadwell Katy TX 2713 22 557 1:02:16.00 2:57:57.23 2:58:55.74 0:58.51 13:35/M
21 Macy Kochman Waco TX 2502 20 594 1:10:33.82 3:06:15.05 3:07:11.00 0:55.95 14:13/M
22 Jazmin Salinas Edinburg TX 2846 22 633 1:23:30.21 3:19:11.44 3:20:19.32 1:07.88 15:12/M
 

Female 25 to 29

Place Name City Bib No Age Overall Time Back Chip Time Gun Time Chip Diff Pace
1 Sarah Raines Austin TX 2658 28 33   1:45:51.05 1:45:58.19 0:07.14 8:05/M
2 Kandis Wright Lubbock TX 2513 26 34 0:29.46 1:46:20.51 1:46:37.96 0:17.45 8:07/M
3 Lauren Gammage Austin TX 2911 26 47 3:50.12 1:49:41.17 1:50:15.39 0:34.22 8:22/M
4 Brittany Celata 2928 29 57 6:47.44 1:52:38.49 1:52:43.30 0:04.81 8:36/M
5 Lisa Martinez san antonio TX 2534 26 64 7:24.11 1:53:15.16 1:53:33.58 0:18.42 8:39/M
6 Alison McCully San Antonio TX 2859 25 68 8:00.70 1:53:51.75 1:54:01.30 0:09.55 8:41/M
7 Emily Skoog Temple TX 2694 27 72 8:42.84 1:54:33.89 1:54:52.85 0:18.96 8:45/M
8 Chrissy Short Austin TX 2460 27 78 9:16.99 1:55:08.04 1:55:19.40 0:11.36 8:47/M
9 Lacey Nordby San Antonio TX 2915 27 83 9:44.97 1:55:36.02 1:55:53.07 0:17.05 8:49/M
10 Madison Elkins Waco TX 2495 25 108 13:57.19 1:59:48.24 1:59:58.17 0:09.93 9:09/M
11 Marretta Plante Schertz TX 2811 26 113 14:06.61 1:59:57.66 2:00:58.10 1:00.44 9:09/M
12 Ashley Deasy Live Oak TX 2899 26 119 14:37.68 2:00:28.73 2:01:05.00 0:36.27 9:12/M
13 Lea Gonzales San Antonio TX 2850 25 144 17:35.16 2:03:26.21 2:03:57.89 0:31.68 9:25/M
14 Chrissy Scoffield Pflugerville TX 2794 28 148 18:22.30 2:04:13.35 2:05:00.34 0:46.99 9:29/M
15 Destiny Rodriguez San Antonio TX 2885 27 157 19:44.21 2:05:35.26 2:05:52.63 0:17.37 9:35/M
16 Brooke Stephens San Antonio TX 2661 27 166 21:07.02 2:06:58.07 2:07:08.93 0:10.86 9:42/M
17 Samantha Salazar San Antonio TX 2266 28 186 23:33.97 2:09:25.02 2:15:58.71 6:33.69 9:53/M
18 Melissa Kam Fredericksburg TX 2432 29 191 24:14.49 2:10:05.54 2:10:30.75 0:25.21 9:56/M
19 Dani Fortinberry San Antonio TX 2853 27 221 26:32.78 2:12:23.83 2:12:34.76 0:10.93 10:06/M
20 Michelle Arishita Austin TX 2875 28 245 29:17.09 2:15:08.14 2:15:43.07 0:34.93 10:19/M
21 Brandy Rivera McAllen TX 2725 25 255 30:43.44 2:16:34.49 2:17:17.83 0:43.34 10:25/M
22 Heather Shoop Midland TX 2836 27 256 30:49.00 2:16:40.05 2:17:07.92 0:27.87 10:26/M
23 LaRae Humes Austin TX 2608 29 258 31:11.10 2:17:02.15 2:18:06.20 1:04.05 10:28/M
24 Janna Robinson Houston TX 2856 27 260 31:13.55 2:17:04.60 2:17:41.40 0:36.80 10:28/M
25 Rachel Durban Austin TX 2760 26 273 33:04.59 2:18:55.64 2:19:47.10 0:51.46 10:36/M
26 Caroline Taylor Georgetown TX 2259 28 279 33:19.83 2:19:10.88 2:19:40.23 0:29.35 10:37/M
27 Laura Chelf Brenham TX 2676 26 306 36:11.60 2:22:02.65 2:23:04.01 1:01.36 10:51/M
28 Amanda Hein Boerne TX 2476 28 332 38:45.36 2:24:36.41 2:24:56.66 0:20.25 11:02/M
29 Shannon Koenders San Antonio TX 1005 26 342 39:39.36 2:25:30.41 2:26:14.22 0:43.81 11:06/M
30 Janelle Arita Austin TX 2849 28 343 39:43.99 2:25:35.04 2:25:58.23 0:23.19 11:07/M
31 Lindsay Wise Converse TX 2833 26 351 40:18.57 2:26:09.62 2:26:41.15 0:31.53 11:09/M
32 Nicole Theurer San Antonio TX 2504 27 363 41:08.58 2:26:59.63 2:27:32.70 0:33.07 11:13/M
33 Joelle Urquhart Killeen TX 2336 26 381 43:11.06 2:29:02.11 2:30:31.64 1:29.53 11:23/M
34 Abigail Giovacchini Austin TX 2347 27 387 43:53.49 2:29:44.54 2:30:15.31 0:30.77 11:26/M
35 Catherine Torres San Antonio TX 2491 27 408 47:24.52 2:33:15.57 2:33:27.62 0:12.05 11:42/M
36 Maren Theodore Kyle TX 2671 29 419 49:20.36 2:35:11.41 2:35:56.73 0:45.32 11:51/M
37 Lauren Sklar Katy TX 2449 29 425 50:31.18 2:36:22.23 2:37:33.13 1:10.90 11:56/M
38 Lucie Bowen San Antonio TX 2362 25 426 50:31.72 2:36:22.77 2:37:32.87 1:10.10 11:56/M
39 Heather Zeh Georgetown TX 2313 29 431 51:23.25 2:37:14.30 2:38:43.69 1:29.39 12:00/M
40 Karissa Orsak New Braunfels TX 2166 29 432 51:32.10 2:37:23.15 2:37:44.89 0:21.74 12:01/M
41 Heidi Dennis New Braunfels TX 2901 27 438 53:12.81 2:39:03.86 2:40:05.01 1:01.15 12:08/M
42 Samantha Torrance Fort Worth TX 2246 27 445 54:56.05 2:40:47.10 2:41:41.38 0:54.28 12:16/M
43 Laci McCabe San Antonio TX 2649 27 469 57:30.67 2:43:21.72 2:43:40.90 0:19.18 12:28/M
44 Alexandria Del Angel San Antonio TX 2705 26 484 59:54.97 2:45:46.02 2:46:32.28 0:46.26 12:39/M
45 Sarah Friend San Antonio TX 2295 29 498 1:02:13.92 2:48:04.97 2:48:52.14 0:47.17 12:50/M
46 Cassandra Knight Fort Worth TX 2428 29 502 1:02:32.01 2:48:23.06 2:48:58.93 0:35.87 12:51/M
47 Tammy Quinterd Floresville TX 1039 25 503 1:02:36.44 2:48:27.49 2:49:34.61 1:07.12 12:52/M
48 Katelyn Williams New Braunfels TX 2599 25 507 1:03:21.57 2:49:12.62 2:49:35.28 0:22.66 12:55/M
49 Sarah Scheidt San Antonio TX 2656 28 514 1:04:39.60 2:50:30.65 2:51:47.05 1:16.40 13:01/M
50 Brooke Ellsworth austin TX 2462 25 537 1:08:47.63 2:54:38.68 2:55:23.41 0:44.73 13:20/M
51 Betsy Anderson Austin TX 2508 28 546 1:10:08.87 2:55:59.92 2:56:24.81 0:24.89 13:26/M
52 Brook Castillo New Braunfels TX 2925 28 547 1:11:12.09 2:57:03.14 2:58:11.22 1:08.08 13:31/M
53 Rachael Cadwell Katy TX 2712 25 556 1:12:05.88 2:57:56.93 2:58:55.40 0:58.47 13:35/M
54 Julie Sloan Dallas TX 2586 25 570 1:15:31.87 3:01:22.92 3:02:07.75 0:44.83 13:51/M
55 Bridget Needham San Antonio TX 2873 28 581 1:17:43.67 3:03:34.72 3:04:45.74 1:11.02 14:01/M
56 Sarah Strong Cedar Park TX 2730 27 587 1:18:53.71 3:04:44.76 3:06:04.41 1:19.65 14:06/M
57 Emily Harris Austin TX 2455 25 589 1:19:55.16 3:05:46.21 3:06:02.76 0:16.55 14:11/M
58 Katie Weber San Antonio TX 2827 29 625 1:30:55.48 3:16:46.53 3:17:29.27 0:42.74 15:01/M
59 Sarah Magbee Austin TX 2540 28 632 1:32:53.80 3:18:44.85 3:20:10.93 1:26.08 15:10/M
60 Stephanie Biesenbach New Braunfels TX 1061 29 671 1:51:01.63 3:36:52.68 3:37:43.64 0:50.96 16:33/M
 

Female 30 to 34

Place Name City Bib No Age Overall Time Back Chip Time Gun Time Chip Diff Pace
1 Jasmine Warner San Marcos TX 2300 30 22   1:43:27.97 1:43:29.02 0:01.05 7:54/M
2 Rachel Roberts New braunfels TX 2642 34 35 3:51.04 1:47:19.01 1:47:26.42 0:07.41 8:12/M
3 Brooke Fontenot Amedee New Braunfels TX 2517 33 51 6:49.70 1:50:17.67 1:50:25.53 0:07.86 8:25/M
4 Gina Marie San Antonio TX 2575 33 53 7:15.96 1:50:43.93 1:50:47.69 0:03.76 8:27/M
5 Ellen McKown Killeen TX 2920 34 55 8:46.88 1:52:14.85 1:52:21.87 0:07.02 8:34/M
6 Alicia Johnson Joshua TX 2834 31 100 15:23.41 1:58:51.38 1:59:08.37 0:16.99 9:04/M
7 Meghann Hemberger New Braunfels TX 1030 32 102 15:47.90 1:59:15.87 1:59:33.43 0:17.56 9:06/M
8 Shelley Howard Austin TX 2668 30 104 16:02.28 1:59:30.25 1:59:44.41 0:14.16 9:07/M
9 Denise Marcos San Antonio TX 2750 33 116 16:33.08 2:00:01.05 2:00:32.96 0:31.91 9:10/M
10 Vanessa Terpenning New Braunfels TX 2793 33 117 16:35.92 2:00:03.89 2:00:21.06 0:17.17 9:10/M
11 Erin Bettison Austin TX 2878 34 131 18:12.54 2:01:40.51 2:02:15.20 0:34.69 9:17/M
12 Katie Lewis Pflugerville TX 2781 31 136 19:11.19 2:02:39.16 2:03:26.24 0:47.08 9:22/M
13 Kelsey Budd Round Rock TX 2560 32 143 19:57.75 2:03:25.72 2:04:26.23 1:00.51 9:25/M
14 Jennifer Wilson Kingwood TX 2394 34 145 20:16.12 2:03:44.09 2:04:05.63 0:21.54 9:27/M
15 Rebekah Rylander Austin TX 2665 31 146 20:23.93 2:03:51.90 2:04:51.74 0:59.84 9:27/M
16 VANESSA ORTIZ San Antonio TX 2742 30 154 21:40.74 2:05:08.71 2:05:14.45 0:05.74 9:33/M
17 Courtney Williams Schertz TX 2206 34 156 22:02.35 2:05:30.32 2:06:03.21 0:32.89 9:35/M
18 Callie Riff Hondo TX 2729 34 165 23:18.96 2:06:46.93 2:06:50.58 0:03.65 9:41/M
19 Rachelle Bradley New Braunfels TX 2267 32 176 24:32.87 2:08:00.84 2:08:39.79 0:38.95 9:46/M
20 Crystal Torres Manchaca TX 2731 34 179 25:05.73 2:08:33.70 2:08:41.27 0:07.57 9:49/M
21 Abby Smith McQueeney TX 2895 32 188 26:04.27 2:09:32.24 2:09:36.79 0:04.55 9:53/M
22 Katie Preston New Braunfels TX 2545 33 194 27:11.02 2:10:38.99 2:11:56.24 1:17.25 9:58/M
23 Kathryn Vinson Austin TX 2788 32 215 28:47.92 2:12:15.89 2:12:53.21 0:37.32 10:06/M
24 Natalie Dubovitskaya Austin TX 2231 34 217 28:48.21 2:12:16.18 2:12:53.20 0:37.02 10:06/M
25 Jennifer Yee Austin TX 2635 34 223 29:11.60 2:12:39.57 2:13:08.13 0:28.56 10:08/M
26 Cara Quayle New Braunfels TX 2721 30 225 29:22.86 2:12:50.83 2:13:16.90 0:26.07 10:08/M
27 Ashley Anderson Spring TX 2663 33 239 30:54.53 2:14:22.50 2:14:55.37 0:32.87 10:15/M
28 Sage Warren San Antonio TX 2716 32 243 31:17.14 2:14:45.11 2:15:23.78 0:38.67 10:17/M
29 Kimberly Atkinson Cibolo TX 1034 33 251 32:27.75 2:15:55.72 2:16:08.33 0:12.61 10:23/M
30 Samantha Harvey Cibolo TX 2633 31 265 34:38.28 2:18:06.25 2:18:25.93 0:19.68 10:33/M
31 Pamela Lindsey New Braunfels TX 2798 33 266 35:16.61 2:18:44.58 2:19:05.51 0:20.93 10:35/M
32 Anne-Marie Berger New Braunfels TX 2664 31 268 35:18.87 2:18:46.84 2:19:27.36 0:40.52 10:36/M
33 Addison Myrick Round Rock TX 2260 31 278 35:38.44 2:19:06.41 2:19:33.52 0:27.11 10:37/M
34 Ashley Rencher Pflugerville TX 2779 32 283 36:00.07 2:19:28.04 2:20:13.98 0:45.94 10:39/M
35 Jennifer Hopper Schertz TX 2510 32 295 36:57.25 2:20:25.22 2:21:28.00 1:02.78 10:43/M
36 Johanna Kim Austin TX 1041 34 308 38:47.90 2:22:15.87 2:22:45.10 0:29.23 10:52/M
37 Allison Abel Los Angeles CA 2842 31 318 39:17.12 2:22:45.09 2:23:01.46 0:16.37 10:54/M
38 Megan Longoria Canadian TX 2590 30 322 40:23.71 2:23:51.68 2:24:48.08 0:56.40 10:59/M
39 Natausha Calame Cibolo TX 2652 30 331 41:05.65 2:24:33.62 2:25:35.32 1:01.70 11:02/M
40 Sarah Gonzalez New Braunfels TX 2324 34 340 41:54.70 2:25:22.67 2:25:44.08 0:21.41 11:06/M
41 Stacie Aho Pflugerville TX 2777 32 341 42:02.30 2:25:30.27 2:26:17.90 0:47.63 11:06/M
42 Juli Vierthaler Austin TX 2932 34 352 42:45.22 2:26:13.19 2:27:19.50 1:06.31 11:10/M
43 Lacey Tew Schertz TX 2431 30 370 43:56.61 2:27:24.58 2:28:38.33 1:13.75 11:15/M
44 Diana Grajeda San Antonio TX 2735 31 371 43:58.67 2:27:26.64 2:28:29.78 1:03.14 11:15/M
45 Sarah Koontz San Antonio TX 2348 30 378 45:01.98 2:28:29.95 2:29:30.47 1:00.52 11:20/M
46 Jillian Baaklini Austin TX 2636 32 388 46:20.86 2:29:48.83 2:30:43.52 0:54.69 11:26/M
47 Jamie Woodring San Antonio TX 2327 33 391 47:40.62 2:31:08.59 2:31:13.44 0:04.85 11:32/M
48 Ashley Lee Conroe TX 2604 33 395 48:00.85 2:31:28.82 2:32:44.76 1:15.94 11:34/M
49 Jennifer Schneider Sayville NY 2237 32 396 48:10.94 2:31:38.91 2:31:55.23 0:16.32 11:35/M
50 Priscilla Niedzwiedz Brownsville TX 2767 34 403 49:02.39 2:32:30.36 2:32:51.22 0:20.86 11:38/M
51 Brittany Green San Antonio TX 2872 32 415 51:02.41 2:34:30.38 2:35:49.18 1:18.80 11:48/M
52 Lane Holt Austin TX 2537 30 423 52:37.66 2:36:05.63 2:37:06.71 1:01.08 11:55/M
53 Frances Jackson San Antonio TX 2240 34 440 56:12.83 2:39:40.80 2:40:55.27 1:14.47 12:11/M
54 Brittany Stribling San Antonio TX 2910 34 461 59:01.07 2:42:29.04 2:44:00.36 1:31.32 12:24/M
55 Tasia Jahns Buda TX 2421 32 463 59:31.79 2:42:59.76 2:43:52.99 0:53.23 12:26/M
56 Rachael Jordan San Antonio TX 2162 32 464 59:36.91 2:43:04.88 2:43:38.72 0:33.84 12:27/M
57 Nichole Jordan San Antonio TX 2309 34 465 59:37.37 2:43:05.34 2:43:38.87 0:33.53 12:27/M
58 Jessica Creswell Cibolo TX 2369 33 470 1:00:10.08 2:43:38.05 2:45:06.25 1:28.20 12:29/M
59 Megan Reeves Austin TX 2630 32 479 1:01:27.29 2:44:55.26 2:46:02.53 1:07.27 12:35/M
60 Jackie Araiza San Antonio TX 2697 32 490 1:04:08.55 2:47:36.52 2:48:46.17 1:09.65 12:48/M
61 Sarah Webb San Antonio TX 2328 30 497 1:04:36.79 2:48:04.76 2:48:51.80 0:47.04 12:50/M
62 Amber Sladek San Antonio TX 2711 32 499 1:04:38.98 2:48:06.95 2:49:01.09 0:54.14 12:50/M
63 Ashley Uribe Dripping Springs TX 2654 33 529 1:09:54.46 2:53:22.43 2:54:02.96 0:40.53 13:14/M
64 Katti Henderson Spring TX 2330 31 534 1:10:53.25 2:54:21.22 2:54:56.85 0:35.63 13:19/M
65 Courtney Scott Magnolia TX 2321 30 536 1:11:08.38 2:54:36.35 2:55:11.74 0:35.39 13:20/M
66 Cheri Booth New Braunfels TX 2597 33 567 1:17:38.67 3:01:06.64 3:02:29.27 1:22.63 13:49/M
67 Megan Coe Rosemount MN 2241 34 583 1:20:53.84 3:04:21.81 3:04:37.27 0:15.46 14:04/M
68 Michelle Gonzalez New braunfels TX 2322 31 584 1:20:57.89 3:04:25.86 3:05:40.37 1:14.51 14:05/M
69 April Nel Universal City TX 2436 31 593 1:22:44.16 3:06:12.13 3:07:31.64 1:19.51 14:13/M
70 Krystal Billups Waco TX 2507 34 595 1:22:49.09 3:06:17.06 3:07:12.98 0:55.92 14:13/M
71 Megan Chance New Braunfels TX 2140 30 601 1:24:26.71 3:07:54.68 3:08:43.31 0:48.63 14:21/M
72 Alecia Taylor Howe TX 2447 34 602 1:25:54.78 3:09:22.75 3:10:51.16 1:28.41 14:27/M
73 Karen Rios Cypress TX 2271 31 603 1:26:16.04 3:09:44.01 3:10:58.79 1:14.78 14:29/M
74 Lauren Hale KATY TX 2419 34 605 1:28:03.56 3:11:31.53 3:13:03.21 1:31.68 14:37/M
75 Starsha Pardee Live Oak TX 2488 34 606 1:28:04.67 3:11:32.64 3:13:07.67 1:35.03 14:37/M
76 Clarissa Zuniga San Antonio TX 2435 34 618 1:30:59.22 3:14:27.19 3:15:14.13 0:46.94 14:51/M
77 DaRenda Hanson Cibolo TX 2167 34 640 1:39:21.44 3:22:49.41 3:24:09.92 1:20.51 15:29/M
78 Michele Nalls San Antonio TX 2891 30 646 1:41:14.15 3:24:42.12 3:24:59.98 0:17.86 15:38/M
79 Sarah Montoya-Foglesong New Braunfels TX 2298 33 658 1:46:37.91 3:30:05.88 3:30:42.33 0:36.45 16:02/M
80 Amber Freeman selma TX 2149 32 659 1:46:41.06 3:30:09.03 3:30:59.74 0:50.71 16:03/M
81 Jennifernice Negley San Angelo TX 2463 33 663 1:49:15.53 3:32:43.50 3:33:55.78 1:12.28 16:14/M
82 Ashley Verastegui Hockley TX 2496 31 664 1:49:39.45 3:33:07.42 3:33:56.26 0:48.84 16:16/M
83 Kayla Dean Kingsbury TX 2532 30 670 1:51:50.18 3:35:18.15 3:36:29.41 1:11.26 16:26/M
84 Alyssa Rogers Converse TX 2615 31 680 1:57:06.18 3:40:34.15 3:41:19.30 0:45.15 16:50/M
 

Female 35 to 39

Place Name City Bib No Age Overall Time Back Chip Time Gun Time Chip Diff Pace
1 Carrie Williams San antonio TX 2141 36 13   1:39:42.95 1:39:44.45 0:01.50 7:37/M
2 Larissa Larsen Kingwood TX 2624 38 40 9:07.73 1:48:50.68 1:49:07.09 0:16.41 8:18/M
3 Tamara McDonough austin TX 2467 35 41 9:11.14 1:48:54.09 1:48:59.49 0:05.40 8:19/M
4 Cecilia Guerrero San Antonio TX 2689 39 46 9:54.84 1:49:37.79 1:49:54.01 0:16.22 8:22/M
5 Claudia Guerrero Mission TX 2116 37 62 13:30.19 1:53:13.14 1:53:25.48 0:12.34 8:39/M
6 Laura OConnor Austin TX 2637 38 76 15:02.90 1:54:45.85 1:54:57.36 0:11.51 8:46/M
7 Jennifer Goetz Austin TX 2690 37 79 15:29.47 1:55:12.42 1:55:23.69 0:11.27 8:48/M
8 Crystal Riff Hondo TX 2726 37 82 15:51.99 1:55:34.94 1:55:37.78 0:02.84 8:49/M
9 Lori Johnson New Braunfels TX 2634 36 88 16:23.37 1:56:06.32 1:56:35.90 0:29.58 8:52/M
10 Kelly Peck Austin TX 2667 36 103 19:46.78 1:59:29.73 1:59:44.44 0:14.71 9:07/M
11 Carrie Wise New Braunfels TX 2527 36 112 20:12.18 1:59:55.13 2:00:24.17 0:29.04 9:09/M
12 Jessica Wilson Saint Hedwig TX 2855 37 114 20:17.24 2:00:00.19 2:00:08.50 0:08.31 9:10/M
13 Lauren LoPresto Schertz TX 2864 39 115 20:17.38 2:00:00.33 2:00:08.39 0:08.06 9:10/M
14 Sarah Reel New Braunfels TX 2101 35 120 20:47.49 2:00:30.44 2:01:13.74 0:43.30 9:12/M
15 Erika Miranda San Antonio TX 2815 39 125 21:17.42 2:01:00.37 2:01:25.11 0:24.74 9:14/M
16 Jen Barry Austin TX 2715 35 138 23:00.26 2:02:43.21 2:02:44.92 0:01.71 9:22/M
17 Maria Saldivar New braunfels TX 2220 37 147 24:26.83 2:04:09.78 2:04:38.47 0:28.69 9:29/M
18 Tyana McKinley New Braunfels TX 2525 38 158 26:15.85 2:05:58.80 2:06:20.85 0:22.05 9:37/M
19 Andrea Owen New Braunfels TX 2282 37 164 26:54.91 2:06:37.86 2:06:51.30 0:13.44 9:40/M
20 Gracie Arenas Leander TX 2934 35 170 27:35.66 2:07:18.61 2:07:49.16 0:30.55 9:43/M
21 Christine L Rodriguez Mcallen TX 2651 37 175 28:15.35 2:07:58.30 2:08:00.60 0:02.30 9:46/M
22 Kristy Wurn San Antonio TX 2413 39 192 30:39.72 2:10:22.67 2:10:39.69 0:17.02 9:57/M
23 Elyssa Kane San Antonio TX 2442 38 193 30:44.97 2:10:27.92 2:10:45.92 0:18.00 9:57/M
24 Suzanne Latch Salber Cibolo TX 2485 36 207 31:59.33 2:11:42.28 2:13:17.16 1:34.88 10:03/M
25 Kimberly Meitzen San Marcos TX 2790 36 220 32:36.93 2:12:19.88 2:12:31.77 0:11.89 10:06/M
26 Steph Williams Round rock TX 2452 35 224 33:07.03 2:12:49.98 2:13:25.57 0:35.59 10:08/M
27 Ellie Morgan AUSTIN TX 2249 37 227 33:26.32 2:13:09.27 2:14:14.59 1:05.32 10:10/M
28 Jenny Richey Spring Branch TX 2809 37 231 34:04.00 2:13:46.95 2:15:24.30 1:37.35 10:13/M
29 Kim Shirley Pflugerville TX 2797 37 234 34:22.22 2:14:05.17 2:14:51.66 0:46.49 10:14/M
30 Sarah Fraticelli San Antonio TX 2481 36 240 34:52.01 2:14:34.96 2:15:46.98 1:12.02 10:16/M
31 Kimberly McGrew Schertz TX 2144 39 241 34:59.90 2:14:42.85 2:15:13.98 0:31.13 10:17/M
32 Zandra Fox Cibolo TX 2874 36 247 35:47.39 2:15:30.34 2:16:06.11 0:35.77 10:21/M
33 Emily Price San Antonio TX 2355 35 301 41:54.27 2:21:37.22 2:21:46.30 0:09.08 10:49/M
34 Kathryn Loman New Braunfels TX 2784 36 316 42:53.49 2:22:36.44 2:22:57.01 0:20.57 10:53/M
35 Alicia White New Braunfels TX 2465 35 321 43:25.80 2:23:08.75 2:24:42.25 1:33.50 10:56/M
36 Jennifer Larsen New Braunfels TX 2702 39 326 44:27.19 2:24:10.14 2:24:42.03 0:31.89 11:00/M
37 Tanya Campen San Antonio TX 2843 38 334 45:12.26 2:24:55.21 2:26:13.86 1:18.65 11:04/M
38 Tricia Garcia San Antonio TX 2598 37 350 46:26.20 2:26:09.15 2:27:51.48 1:42.33 11:09/M
39 Laura DiMery New Braunfels TX 2248 37 353 46:35.80 2:26:18.75 2:26:40.05 0:21.30 11:10/M
40 Aracely Renderos San Antonio TX 2880 39 354 46:38.71 2:26:21.66 2:27:11.51 0:49.85 11:10/M
41 Bethany Goins Jourdanton TX 2294 37 356 46:51.05 2:26:34.00 2:27:37.94 1:03.94 11:11/M
42 Elba Diaz Patzelt Pflugerville TX 2749 38 357 46:53.92 2:26:36.87 2:27:06.32 0:29.45 11:11/M
43 Betsy Murray Austin TX 2754 39 365 47:31.62 2:27:14.57 2:27:54.95 0:40.38 11:14/M
44 Lauren Crosby Live Oak TX 2687 35 369 47:41.44 2:27:24.39 2:28:38.17 1:13.78 11:15/M
45 Jennifer Pesek HOUSTON TX 2464 38 385 49:40.12 2:29:23.07 2:30:37.69 1:14.62 11:24/M
46 Ashley Slania Houston TX 2466 39 386 49:41.33 2:29:24.28 2:30:37.58 1:13.30 11:24/M
47 Chelsea Lietz Bulverde TX 2239 35 398 51:58.40 2:31:41.35 2:32:47.06 1:05.71 11:35/M
48 Jennifer Trevino San Antonio TX 2808 35 407 53:15.55 2:32:58.50 2:34:40.44 1:41.94 11:41/M
49 Haley Hutting Shavano Park TX 2913 37 417 55:16.18 2:34:59.13 2:36:17.22 1:18.09 11:50/M
50 Heather Delaney San Antonio TX 2870 38 422 56:00.82 2:35:43.77 2:37:01.95 1:18.18 11:53/M
51 Karen Simmons Leander TX 2345 39 424 56:27.73 2:36:10.68 2:37:11.62 1:00.94 11:55/M
52 Christina Campbell San Angelo TX 2486 36 435 59:09.18 2:38:52.13 2:39:56.54 1:04.41 12:08/M
53 Amanda Hattman San Antonio TX 2349 38 448 1:01:32.62 2:41:15.57 2:42:39.96 1:24.39 12:19/M
54 Ryan Cummings San Antonio TX 2734 37 458 1:02:33.18 2:42:16.13 2:43:35.89 1:19.76 12:23/M
55 Mandi Phares Howe TX 2448 35 460 1:02:45.50 2:42:28.45 2:43:45.92 1:17.47 12:24/M
56 Betsy Faris Midland TX 2841 37 468 1:03:34.70 2:43:17.65 2:44:16.92 0:59.27 12:28/M
57 Edna Noriega Mission TX 2493 38 473 1:04:12.70 2:43:55.65 2:44:57.38 1:01.73 12:31/M
58 Evy Ramos San Antonio TX 2845 35 475 1:04:45.54 2:44:28.49 2:45:24.15 0:55.66 12:33/M
59 Sharon Glosson San Antonio TX 2128 36 476 1:04:46.34 2:44:29.29 2:45:24.95 0:55.66 12:33/M
60 Claudia Longoria edinburg TX 2137 37 487 1:07:20.72 2:47:03.67 2:48:25.99 1:22.32 12:45/M
61 Mary Rangel Pharr TX 2122 39 493 1:08:05.55 2:47:48.50 2:48:26.18 0:37.68 12:49/M
62 Mira Rollins Cedar Hill TX 2242 37 495 1:08:17.27 2:48:00.22 2:48:41.03 0:40.81 12:49/M
63 Agatha Kerr Schertz TX 2876 38 508 1:09:36.09 2:49:19.04 2:50:14.93 0:55.89 12:55/M
64 Jennifer Mills New Braunfels TX 2755 35 530 1:14:08.31 2:53:51.26 2:55:37.02 1:45.76 13:16/M
65 Afamia Elnakat San Antonio TX 2384 38 559 1:20:05.72 2:59:48.67 3:00:57.79 1:09.12 13:44/M
66 Colette Riddle New Braunfels TX 2343 35 568 1:21:23.74 3:01:06.69 3:02:29.32 1:22.63 13:49/M
67 Karen Corneille Helotes TX 2429 39 588 1:25:14.32 3:04:57.27 3:05:41.03 0:43.76 14:07/M
68 Sarabeth Kuzmak San antonio TX 2461 36 604 1:31:00.39 3:10:43.34 3:11:52.77 1:09.43 14:34/M
69 Jessica Anne San Antonio TX 1026 38 607 1:31:52.47 3:11:35.42 3:12:47.55 1:12.13 14:37/M
70 Chrysta LLoyd Richmond TX 2595 37 627 1:37:56.74 3:17:39.69 3:19:00.83 1:21.14 15:05/M
71 Amy Contreras Houston TX 2594 35 628 1:38:02.70 3:17:45.65 3:19:07.14 1:21.49 15:06/M
72 Mieca Johnson Austin TX 2238 37 634 1:40:36.94 3:20:19.89 3:22:01.94 1:42.05 15:17/M
73 Arizbel Jara New Braunfels TX 2582 37 635 1:41:17.19 3:21:00.14 3:22:12.33 1:12.19 15:21/M
74 Jessica Sorensen San Antonio TX 2105 37 650 1:46:53.70 3:26:36.65 3:27:17.55 0:40.90 15:46/M
75 Crystal Lacy Schertz TX 2184 35 652 1:47:15.67 3:26:58.62 3:27:36.07 0:37.45 15:48/M
76 Jessica Escue College Station TX 2163 36 653 1:47:15.79 3:26:58.74 3:27:35.98 0:37.24 15:48/M
77 Christie Behrens Cypress TX 2500 38 657 1:49:42.09 3:29:25.04 3:30:36.66 1:11.62 15:59/M
78 Valerie Gonzales Seguin TX 2350 38 669 1:55:34.80 3:35:17.75 3:36:29.59 1:11.84 16:26/M
79 Amy Beam Terrell TX 2570 39 672 1:57:23.81 3:37:06.76 3:38:35.86 1:29.10 16:34/M
80 Yvette Benavidez McAllen TX 2469 37 676 1:57:53.17 3:37:36.12 3:38:44.67 1:08.55 16:37/M
81 Kim Davis Oberlin KS 2865 39 681 2:06:39.88 3:46:22.83 3:47:53.30 1:30.47 17:17/M
 

Female 40 to 44

Place Name City Bib No Age Overall Time Back Chip Time Gun Time Chip Diff Pace
1 Rosario Juarez Round Rock TX 2751 40 45   1:49:34.13 1:49:41.25 0:07.12 8:22/M
2 Jeni Raymond Houston TX 2946 43 60 3:36.40 1:53:10.53 1:53:17.45 0:06.92 8:38/M
3 Heather Hepp San Antonio TX 2714 44 61 3:37.93 1:53:12.06 1:53:47.01 0:34.95 8:38/M
4 DiAnna Drysdale Spicewood TX 1043 43 77 5:31.38 1:55:05.51 1:56:41.57 1:36.06 8:47/M
5 Kelly Rust New Braunfels TX 2703 40 94 8:15.63 1:57:49.76 1:57:59.08 0:09.32 9:00/M
6 Whitney Smith Spring TX 2621 41 118 10:30.63 2:00:04.76 2:00:19.74 0:14.98 9:10/M
7 Angela Repasi New Braunfels TX 2177 41 122 11:04.04 2:00:38.17 2:00:55.14 0:16.97 9:13/M
8 Griselda Perales Mission TX 2707 43 132 12:06.76 2:01:40.89 2:01:43.97 0:03.08 9:17/M
9 Tamsyn Rossi New Braunfels TX 1060 42 149 14:40.37 2:04:14.50 2:04:41.51 0:27.01 9:29/M
10 Kim Francis New Braunfels TX 2339 40 153 15:28.69 2:05:02.82 2:06:11.02 1:08.20 9:33/M
11 Dina Gonzalez San Antonio TX 2828 43 160 16:42.46 2:06:16.59 2:06:44.93 0:28.34 9:38/M
12 Melissa Maddox Schertz TX 1031 44 189 20:09.60 2:09:43.73 2:09:56.56 0:12.83 9:54/M
13 Christy Dulaney Bellaire TX 2552 41 199 21:43.53 2:11:17.66 2:12:14.91 0:57.25 10:01/M
14 Gina Bisett Dripping Springs TX 2289 40 209 22:21.73 2:11:55.86 2:12:11.00 0:15.14 10:04/M
15 Cindy Leal McAllen TX 2138 41 211 22:28.50 2:12:02.63 2:12:40.63 0:38.00 10:05/M
16 Tamona Bright Cibolo TX 2625 40 222 22:50.55 2:12:24.68 2:13:12.69 0:48.01 10:06/M
17 Juliana Horn San Antonio TX 2288 44 230 24:09.66 2:13:43.79 2:14:13.46 0:29.67 10:12/M
18 Wendee Murphy Spring Branch TX 2810 43 232 24:12.85 2:13:46.98 2:15:24.39 1:37.41 10:13/M
19 Dawn Psaromatis Austin TX 1019 41 236 24:40.71 2:14:14.84 2:15:01.67 0:46.83 10:15/M
20 Angela Lord Sienna Plantation TX 2699 41 261 27:45.09 2:17:19.22 2:17:58.85 0:39.63 10:29/M
21 Amy Miller San Antonio TX 2807 42 262 28:03.52 2:17:37.65 2:19:15.07 1:37.42 10:30/M
22 Missy Fraser New Braunfels TX 2511 41 263 28:11.14 2:17:45.27 2:18:22.95 0:37.68 10:31/M
23 Christine Gilliam San Antonio TX 1050 43 296 30:52.83 2:20:26.96 2:20:51.26 0:24.30 10:43/M
24 Anna Kaiser bulverde TX 2680 43 313 32:58.44 2:22:32.57 2:23:58.04 1:25.47 10:53/M
25 Tori Valdez San Antonio TX 2912 40 314 32:59.04 2:22:33.17 2:24:30.18 1:57.01 10:53/M
26 Tania Halmos New Braunfels TX 2929 42 319 33:15.97 2:22:50.10 2:23:07.34 0:17.24 10:54/M
27 Hillary Archer Houston TX 2650 40 336 35:25.52 2:24:59.65 2:26:12.99 1:13.34 11:04/M
28 Christina Banks New Braunfels TX 2930 41 338 35:30.56 2:25:04.69 2:25:43.56 0:38.87 11:04/M
29 Megan Kressin Austin TX 1021 43 345 36:10.91 2:25:45.04 2:26:38.15 0:53.11 11:08/M
30 Shayler Wagner New Braunfels TX 2155 41 348 36:26.02 2:26:00.15 2:26:22.32 0:22.17 11:09/M
31 Amy Chandler New Braunfels TX 2727 42 349 36:32.46 2:26:06.59 2:26:37.67 0:31.08 11:09/M
32 Danielle Patteson Boerne TX 2472 42 359 37:06.92 2:26:41.05 2:27:36.18 0:55.13 11:12/M
33 Brenda Brantley Round Rock TX 1055 43 360 37:18.69 2:26:52.82 2:27:08.06 0:15.24 11:13/M
34 Sherrill Oates Cibolo TX 2437 41 367 37:48.70 2:27:22.83 2:28:02.82 0:39.99 11:15/M
35 Myra A. Garza Palmhurst TX 2639 41 368 37:48.76 2:27:22.89 2:28:15.75 0:52.86 11:15/M
36 Risa Riepma San Antonio TX 2805 43 377 38:27.39 2:28:01.52 2:28:54.18 0:52.66 11:18/M
37 Juanita Bowling Marble falls TX 2774 40 389 40:14.87 2:29:49.00 2:30:43.41 0:54.41 11:26/M
38 Tyra Greene McAllen TX 2453 42 393 41:48.17 2:31:22.30 2:32:01.86 0:39.56 11:33/M
39 Kathryn Davis San Antonio TX 2868 40 401 42:33.37 2:32:07.50 2:32:58.94 0:51.44 11:37/M
40 Kristina Udd Victoria TX 2278 40 410 43:46.87 2:33:21.00 2:34:06.29 0:45.29 11:42/M
41 Adria Filla Schertz TX 2515 44 439 50:01.16 2:39:35.29 2:40:26.12 0:50.83 12:11/M
42 Judith Garcia San Juan TX 2182 44 444 51:10.53 2:40:44.66 2:41:25.81 0:41.15 12:16/M
43 Amy Dellinger Schertz TX 2487 42 447 51:34.34 2:41:08.47 2:42:11.32 1:02.85 12:18/M
44 Julie Tynmann boerne TX 2701 41 454 52:09.80 2:41:43.93 2:42:16.22 0:32.29 12:21/M
45 Karen Macy Schepis San Marcos TX 2307 40 455 52:13.18 2:41:47.31 2:42:19.77 0:32.46 12:21/M
46 Tanya Garcia San Antonio TX 2759 40 459 52:48.63 2:42:22.76 2:43:26.78 1:04.02 12:24/M
47 Pamela DeWitt Selma TX 2743 42 481 55:50.62 2:45:24.75 2:46:35.35 1:10.60 12:38/M
48 Suhayl Cedillo Mission TX 2153 40 489 57:57.86 2:47:31.99 2:48:33.75 1:01.76 12:47/M
49 Jennifer Shafer New Braunfels TX 2169 43 492 58:06.63 2:47:40.76 2:48:34.73 0:53.97 12:48/M
50 Kristy Egland The Colony TX 2243 40 496 58:28.24 2:48:02.37 2:48:43.25 0:40.88 12:50/M
51 Michal Lee Helotes TX 2691 44 500 58:36.85 2:48:10.98 2:49:22.23 1:11.25 12:50/M
52 Deanna Ortiz Austin TX 2263 40 501 58:48.90 2:48:23.03 2:48:43.45 0:20.42 12:51/M
53 Jessica Swadick Helotes TX 2708 40 509 59:59.72 2:49:33.85 2:50:25.40 0:51.55 12:57/M
54 Stacey DeStefano Austin TX 2344 42 512 1:00:35.37 2:50:09.50 2:50:55.29 0:45.79 12:59/M
55 Cecilia Palomo Schertz TX 2387 41 513 1:00:48.16 2:50:22.29 2:51:14.76 0:52.47 13:00/M
56 Helen Henrichs San Antonio TX 2183 40 515 1:01:13.05 2:50:47.18 2:52:18.59 1:31.41 13:02/M
57 Debbie Forland Brenham TX 2404 42 516 1:01:58.59 2:51:32.72 2:52:34.13 1:01.41 13:06/M
58 Joy Hale Hurst TX 2543 43 518 1:02:22.02 2:51:56.15 2:52:40.34 0:44.19 13:07/M
59 Cheryl Escobar Schertz TX 2438 42 520 1:02:34.32 2:52:08.45 2:52:59.30 0:50.85 13:08/M
60 Coby Dycus Katy TX 2388 42 528 1:03:20.14 2:52:54.27 2:53:36.85 0:42.58 13:12/M
61 Julie Peters ROUND ROCK TX 2283 40 543 1:06:13.55 2:55:47.68 2:56:30.80 0:43.12 13:25/M
62 Mesha Millsap San Antonio TX 2804 41 544 1:06:15.86 2:55:49.99 2:56:49.93 0:59.94 13:25/M
63 Megan Hedges-Poole San Antonio TX 2800 40 545 1:06:16.03 2:55:50.16 2:56:49.83 0:59.67 13:25/M
64 Jennifer Alspach New Braunfels TX 2209 42 551 1:08:14.94 2:57:49.07 2:58:11.56 0:22.49 13:34/M
65 Julie Silhan Spring TX 2201 43 555 1:08:17.06 2:57:51.19 2:59:01.39 1:10.20 13:35/M
66 Amanda Marullo Round Rock TX 2818 44 561 1:11:01.26 3:00:35.39 3:01:17.17 0:41.78 13:47/M
67 Heather Vickers Round Rock TX 2823 42 562 1:11:01.39 3:00:35.52 3:01:17.21 0:41.69 13:47/M
68 Jennifer Holland Fort Sam Houston TX 2353 42 564 1:11:02.41 3:00:36.54 3:01:35.50 0:58.96 13:47/M
69 Kara Watts Kingsbury TX 2221 42 573 1:12:17.17 3:01:51.30 3:03:33.28 1:41.98 13:53/M
70 Rachel Walker San Antonio TX 1012 44 579 1:13:42.67 3:03:16.80 3:03:44.90 0:28.10 13:59/M
71 Lisa Rush Pleasanton TX 2293 44 596 1:17:23.77 3:06:57.90 3:08:16.81 1:18.91 14:16/M
72 Destin Singleton New Braunfels TX 2672 40 598 1:18:12.04 3:07:46.17 3:09:09.89 1:23.72 14:20/M
73 India Moore New Braunfels TX 2673 43 599 1:18:14.61 3:07:48.74 3:09:12.42 1:23.68 14:20/M
74 Dawn Richards San Antonio TX 2172 40 608 1:22:39.16 3:12:13.29 3:13:46.89 1:33.60 14:40/M
75 Shana Gilbert San Antonio TX 2228 44 610 1:22:45.89 3:12:20.02 3:13:51.89 1:31.87 14:41/M
76 Mercedes Anderson Austin TX 1048 41 611 1:22:55.39 3:12:29.52 3:12:29.52 14:42/M
77 Alyson Miller San Antonio TX 1002 41 613 1:24:10.71 3:13:44.84 3:14:37.15 0:52.31 14:47/M
78 Tanya Wood San Marcos TX 2523 43 614 1:24:20.30 3:13:54.43 3:14:36.69 0:42.26 14:48/M
79 Bonnie Rudolph Langdon AB 2458 40 647 1:35:08.60 3:24:42.73 3:26:05.50 1:22.77 15:38/M
80 Lynzee Buck TWIN FALLS ID 2161 40 649 1:36:55.21 3:26:29.34 3:27:10.58 0:41.24 15:46/M
81 Jennifer Obearle SELMA TX 2126 40 660 1:40:42.93 3:30:17.06 3:31:06.76 0:49.70 16:03/M
82 Heather Magarian San Antonio TX 2802 42 666 1:44:19.50 3:33:53.63 3:34:35.46 0:41.83 16:20/M
83 Jamie Stafford San Antonio TX 2803 43 667 1:44:19.51 3:33:53.64 3:34:35.57 0:41.93 16:20/M
84 Becca Wallace-Jones SAN ANTONIO TX 2371 43 678 1:48:28.23 3:38:02.36 3:39:04.14 1:01.78 16:39/M
85 Lisa Evans Cibolo TX 2379 43 679 1:48:47.85 3:38:21.98 3:38:45.65 0:23.67 16:40/M
86 Elvia Williams San antonio TX 2860 43 684 1:59:18.00 3:48:52.13 3:49:38.75 0:46.62 17:28/M
87 Katie Vaello San Antonio TX 2440 43 689 2:05:09.92 3:54:44.05 3:56:11.79 1:27.74 17:55/M
88 Shelly Ray New Braunfels TX 2273 40 692 2:05:47.18 3:55:21.31 3:56:51.33 1:30.02 17:58/M
89 Dawn Reagan Temple TX 2317 44 694 2:06:38.67 3:56:12.80 3:57:41.37 1:28.57 18:02/M
 

Female 45 to 49

Place Name City Bib No Age Overall Time Back Chip Time Gun Time Chip Diff Pace
1 Jeanette Drake San Antonio TX 2706 46 58   1:52:47.95 1:53:22.71 0:34.76 8:37/M
2 Kristen Roach San Antonio TX 1023 45 70 1:35.19 1:54:23.14 1:54:32.32 0:09.18 8:44/M
3 Diane Truong Cypress TX 2217 49 85 2:49.50 1:55:37.45 1:55:50.68 0:13.23 8:50/M
4 Lisa Sanderson Cibolo TX 2104 49 139 9:58.18 2:02:46.13 2:02:58.36 0:12.23 9:22/M
5 Vangie Christensen Round Rock TX 2799 47 161 13:34.32 2:06:22.27 2:06:38.69 0:16.42 9:39/M
6 Lorda Tauli Edinburg TX 2520 47 163 13:45.09 2:06:33.04 2:06:35.31 0:02.27 9:40/M
7 Trudi Pacheco McAllen TX 2121 49 174 15:09.58 2:07:57.53 2:08:10.76 0:13.23 9:46/M
8 Trina Roffino Kaufman TX 2494 45 182 16:11.25 2:08:59.20 2:09:20.45 0:21.25 9:51/M
9 Margie Massey Shavano Park TX 2916 47 185 16:37.05 2:09:25.00 2:09:25.00 9:53/M
10 Gina Faludi Houston TX 2451 45 190 17:09.49 2:09:57.44 2:10:07.44 0:10.00 9:55/M
11 Nur Tello San Antonio TX 2501 48 197 18:21.44 2:11:09.39 2:11:16.14 0:06.75 10:01/M
12 Karin Weaver San Antonio TX 2867 49 249 23:05.89 2:15:53.84 2:16:41.93 0:48.09 10:22/M
13 Terrie McDaniel Helotes TX 2861 46 272 26:07.24 2:18:55.19 2:19:48.53 0:53.34 10:36/M
14 Kay Perry San Antonio TX 2401 45 284 26:50.80 2:19:38.75 2:20:07.91 0:29.16 10:40/M
15 Priscilla Bianchi Spring Branch TX 2389 48 291 27:25.67 2:20:13.62 2:21:34.52 1:20.90 10:42/M
16 Gigi Stephenson San Antonio TX 1042 47 292 27:30.44 2:20:18.39 2:21:39.60 1:21.21 10:43/M
17 Kimberly Tauch Fort Sam Houston TX 2896 49 293 27:32.92 2:20:20.87 2:21:28.61 1:07.74 10:43/M
18 Denise Ponder Cibolo TX 2381 49 304 29:08.87 2:21:56.82 2:22:19.84 0:23.02 10:50/M
19 Lori Shaw Cibolo TX 2380 48 305 29:10.40 2:21:58.35 2:22:19.83 0:21.48 10:50/M
20 Kelly Styles San Antonio TX 2457 46 309 29:37.28 2:22:25.23 2:22:45.35 0:20.12 10:52/M
21 Heather Harrison San Antonio TX 2877 46 310 29:37.86 2:22:25.81 2:22:45.31 0:19.50 10:52/M
22 Joanne Gutierrez San Antonio TX 1053 46 311 29:43.15 2:22:31.10 2:23:42.31 1:11.21 10:53/M
23 Sarah Ellen seguin TX 1015 48 339 32:21.81 2:25:09.76 2:25:41.22 0:31.46 11:05/M
24 Casey Laukkanen Kyle TX 2684 45 344 32:48.32 2:25:36.27 2:26:25.34 0:49.07 11:07/M
25 Sarah Costello Houston TX 2356 46 346 32:57.30 2:25:45.25 2:26:37.97 0:52.72 11:08/M
26 Barbara Bachman Richland Springs TX 2224 47 364 34:24.85 2:27:12.80 2:28:07.32 0:54.52 11:14/M
27 Kasondra Kistner Marion TX 2424 46 366 34:34.43 2:27:22.38 2:28:02.60 0:40.22 11:15/M
28 Mary Garcia mcallen TX 2205 47 373 34:56.52 2:27:44.47 2:28:23.03 0:38.56 11:17/M
29 Bettina Jones San Antonio TX 2647 48 375 35:01.17 2:27:49.12 2:27:52.81 0:03.69 11:17/M
30 Roxanna Ramos houston TX 2360 45 376 35:10.42 2:27:58.37 2:28:08.38 0:10.01 11:18/M
31 Elizabeth Kazen new braunfels TX 2577 46 382 36:21.35 2:29:09.30 2:29:24.98 0:15.68 11:23/M
32 Jessie Bell Boerne TX 2785 47 412 40:42.77 2:33:30.72 2:34:35.22 1:04.50 11:43/M
33 Jennifer Schmitt New Braunfels TX 2165 48 416 42:03.50 2:34:51.45 2:36:36.86 1:45.41 11:49/M
34 Benita Fager San Antonio TX 2118 47 421 42:37.05 2:35:25.00 2:36:35.82 1:10.82 11:52/M
35 Christine Krueger SanAntonio TX 2433 47 436 46:10.02 2:38:57.97 2:39:50.67 0:52.70 12:08/M
36 Teri McLeod Odessa TX 2854 47 441 47:13.32 2:40:01.27 2:41:41.03 1:39.76 12:13/M
37 Lisa York San Antonio TX 2919 46 446 48:05.67 2:40:53.62 2:41:00.08 0:06.46 12:17/M
38 Lori Morgenroth Schertz TX 2150 45 450 48:39.65 2:41:27.60 2:42:18.60 0:51.00 12:19/M
39 Paige Hughes Universal city TX 2600 49 451 48:40.66 2:41:28.61 2:42:10.79 0:42.18 12:20/M
40 Kimberly Schlageter New Braunfels, Texas TX 2490 47 456 49:06.27 2:41:54.22 2:42:13.54 0:19.32 12:22/M
41 Donna Garcia Richmond TX 2524 49 457 49:24.98 2:42:12.93 2:43:11.23 0:58.30 12:23/M
42 Gina Snow San Antonio TX 2756 49 466 50:18.36 2:43:06.31 2:44:10.64 1:04.33 12:27/M
43 Kathleen Boucher San Antonio TX 2795 49 472 51:06.42 2:43:54.37 2:44:38.78 0:44.41 12:31/M
44 Rosie Salinas MCALLEN TX 2723 46 474 51:14.74 2:44:02.69 2:44:56.87 0:54.18 12:31/M
45 Michele Solberg Austin TX 2311 45 477 51:53.81 2:44:41.76 2:45:58.91 1:17.15 12:34/M
46 Liz Kriz San Antonio TX 2914 47 491 54:51.74 2:47:39.69 2:49:01.65 1:21.96 12:48/M
47 Cheryl Deahl Cibolo TX 2139 48 494 55:11.44 2:47:59.39 2:48:50.95 0:51.56 12:49/M
48 Heather Hudson Austin TX 2745 48 504 55:43.86 2:48:31.81 2:49:13.58 0:41.77 12:52/M
49 Lori Bohning New Braunfels TX 2584 49 506 56:20.01 2:49:07.96 2:50:38.13 1:30.17 12:55/M
50 Daisy Sage New Braunfels TX 1007 47 524 59:33.08 2:52:21.03 2:53:49.53 1:28.50 13:09/M
51 Barbara Lopardi Helotes TX 2146 47 526 1:00:02.61 2:52:50.56 2:54:00.23 1:09.67 13:12/M
52 Elise Craig New Braunfels TX 2522 46 540 1:02:11.95 2:54:59.90 2:55:19.51 0:19.61 13:21/M
53 Michele Tutt Austin TX 2695 47 560 1:07:06.21 2:59:54.16 3:00:03.36 0:09.20 13:44/M
54 Cindy Hooper New Braunfels TX 2195 48 574 1:09:15.27 3:02:03.22 3:02:35.66 0:32.44 13:54/M
55 Maria Bryant San Antonio TX 2374 47 580 1:10:42.36 3:03:30.31 3:03:38.34 0:08.03 14:00/M
56 Christine Santelli buda TX 2279 47 590 1:13:01.35 3:05:49.30 3:06:12.82 0:23.52 14:11/M
57 Cassandra Medrano Austin TX 2897 45 591 1:13:01.61 3:05:49.56 3:06:13.02 0:23.46 14:11/M
58 Tracy Gudmundson Helotes TX 1037 45 621 1:22:05.32 3:14:53.27 3:15:53.33 1:00.06 14:53/M
59 Stephani Singer Helotes TX 1038 47 622 1:22:05.35 3:14:53.30 3:15:53.15 0:59.85 14:53/M
60 Sylvia Perez San Antonio TX 2887 49 637 1:28:28.05 3:21:16.00 3:21:57.05 0:41.05 15:22/M
61 Sayuki Goldman San Antonio TX 2256 48 685 1:59:05.48 3:51:53.43 3:52:25.80 0:32.37 17:42/M
62 Heidi Schofield San Antonio TX 2110 46 690 2:01:56.47 3:54:44.42 3:56:12.15 1:27.73 17:55/M
63 Leah Whetstone San Antonio TX 2114 46 693 2:02:49.51 3:55:37.46 3:56:02.54 0:25.08 17:59/M
 

Female 50 to 54

Place Name City Bib No Age Overall Time Back Chip Time Gun Time Chip Diff Pace
1 Whitney Greene canyon lake TX 2499 52 105   1:59:37.36 2:00:15.76 0:38.40 9:08/M
2 Marlene Hicks Georgetown TX 2602 52 127 1:45.91 2:01:23.27 2:01:33.42 0:10.15 9:16/M
3 Melissa Devine Austin TX 2596 52 128 1:46.96 2:01:24.32 2:01:34.43 0:10.11 9:16/M
4 Heidi Schriewer San Marcos TX 2498 51 152 5:17.19 2:04:54.55 2:05:04.40 0:09.85 9:32/M
5 Laura Shumaker Schertz TX 2315 50 159 6:26.05 2:06:03.41 2:06:18.21 0:14.80 9:37/M
6 Melaine Haberman Dripping Springs TX 2593 52 180 8:56.47 2:08:33.83 2:08:43.95 0:10.12 9:49/M
7 Christiana Garton San Antonio TX 2569 52 208 12:05.75 2:11:43.11 2:11:59.60 0:16.49 10:03/M
8 Karen Sites Dripping Springs TX 2879 54 210 12:18.65 2:11:56.01 2:12:11.11 0:15.10 10:04/M
9 Kate Carroll Aranda San Antonio TX 1008 50 226 13:23.19 2:13:00.55 2:13:06.82 0:06.27 10:09/M
10 Anne Alley San Antonio TX 2852 53 229 14:04.50 2:13:41.86 2:14:18.23 0:36.37 10:12/M
11 Sarah Marshall Austin TX 1020 54 237 14:37.52 2:14:14.88 2:15:01.72 0:46.84 10:15/M
12 Audra Fahey San Antonio TX 2821 50 252 16:20.93 2:15:58.29 2:16:21.89 0:23.60 10:23/M
13 Jennifer Johnston Chandler TX 2693 53 264 18:26.94 2:18:04.30 2:18:27.22 0:22.92 10:32/M
14 Lori Johnson Canadian TX 2591 53 270 19:11.53 2:18:48.89 2:19:43.90 0:55.01 10:36/M
15 Devra Barfield New Braunfels TX 2740 53 287 20:27.47 2:20:04.83 2:20:27.36 0:22.53 10:42/M
16 Laura Berg San Antotonio TX 2679 51 312 22:54.86 2:22:32.22 2:23:57.72 1:25.50 10:53/M
17 Kim Walker Helotes TX 2519 50 324 24:32.24 2:24:09.60 2:24:17.56 0:07.96 11:00/M
18 Gwendolyn Mason Schertz TX 2666 54 372 27:56.49 2:27:33.85 2:27:56.99 0:23.14 11:16/M
19 Monika Behrens San Antontio TX 2417 50 394 31:45.16 2:31:22.52 2:32:46.70 1:24.18 11:33/M
20 Patsy Niles Round Rock TX 2109 53 400 32:23.60 2:32:00.96 2:33:36.83 1:35.87 11:36/M
21 Carmen McHenry San Antonio TX 2816 52 414 34:13.95 2:33:51.31 2:35:08.95 1:17.64 11:45/M
22 San Juana Martinez San antonio TX 2535 54 428 37:03.47 2:36:40.83 2:37:51.84 1:11.01 11:58/M
23 Cynthia DeVaughn San Antonio TX 2696 52 452 41:52.95 2:41:30.31 2:42:00.24 0:29.93 12:20/M
24 Sheila Simmons Midland TX 2893 52 467 43:38.58 2:43:15.94 2:44:15.44 0:59.50 12:28/M
25 Patricia Owen Canyon Lake TX 2365 54 483 46:07.83 2:45:45.19 2:46:50.46 1:05.27 12:39/M
26 Martha L'Antigua Fair Oaks Ranch TX 2900 54 488 47:38.08 2:47:15.44 2:48:21.49 1:06.05 12:46/M
27 Maggie Parma NewcBraunfels TX 2787 54 511 50:18.63 2:49:55.99 2:51:21.07 1:25.08 12:58/M
28 Cheryl Kolbert San Antonio TX 2801 53 541 55:50.82 2:55:28.18 2:56:24.85 0:56.67 13:24/M
29 Sandra Stringfield Live Oak TX 2678 54 578 1:03:19.38 3:02:56.74 3:04:35.79 1:39.05 13:58/M
30 Denise Brady Spring Branch TX 1040 54 582 1:04:06.28 3:03:43.64 3:04:50.78 1:07.14 14:01/M
31 Myriam Cabrera AUSTIN TX 2107 51 626 1:17:39.93 3:17:17.29 3:18:38.62 1:21.33 15:04/M
32 Carol Champagne Buda TX 2154 50 629 1:18:14.81 3:17:52.17 3:19:26.74 1:34.57 15:06/M
33 Tammy Zarbano Buda TX 2156 52 630 1:18:15.34 3:17:52.70 3:19:26.80 1:34.10 15:06/M
34 Kimberley Gray Cibolo TX 2143 54 639 1:23:11.51 3:22:48.87 3:24:09.84 1:20.97 15:29/M
35 Sandra Kolb Schertz TX 2619 52 641 1:23:41.72 3:23:19.08 3:23:54.49 0:35.41 15:31/M
36 Yvette Keeble Corpus Christi TX 2358 51 654 1:27:21.42 3:26:58.78 3:27:30.59 0:31.81 15:48/M
37 Gail Branum Garden Ridge TX 2778 53 655 1:29:31.72 3:29:09.08 3:30:24.07 1:14.99 15:58/M
38 Susan Githu San antonio TX 2280 53 668 1:34:52.64 3:34:30.00 3:34:49.15 0:19.15 16:22/M
39 Rebeca Garcia San Antonio TX 2554 52 683 1:48:48.01 3:48:25.37 3:49:38.52 1:13.15 17:26/M
40 Blanca Searuggs San Antonio TX 2737 50 687 1:53:52.63 3:53:29.99 3:54:20.13 0:50.14 17:49/M
 

Female 55 to 59

Place Name City Bib No Age Overall Time Back Chip Time Gun Time Chip Diff Pace
1 Randi Garvey North Palm Beach FL 2416 58 133   2:02:02.72 2:02:04.30 0:01.58 9:19/M
2 Rachel Gunderson Saint Joseph MO 2299 56 140 1:11.10 2:03:13.82 2:03:28.19 0:14.37 9:24/M
3 Debbie Hillner College Station TX 2422 57 257 14:53.03 2:16:55.75 2:18:26.41 1:30.66 10:27/M
4 Debbie Roberts Seguin TX 2497 58 300 19:13.84 2:21:16.56 2:22:51.87 1:35.31 10:47/M
5 Anita (Ana) Larralde Mission TX 2471 59 434 35:41.78 2:37:44.50 2:38:25.64 0:41.14 12:02/M
6 Norma Navarro McAllen TX 2541 56 480 43:04.05 2:45:06.77 2:45:34.99 0:28.22 12:36/M
7 Yvonne Brabham Garden ridge TX 2253 55 510 47:41.47 2:49:44.19 2:50:07.04 0:22.85 12:57/M
8 Linda Ronald SAN ANTONIO TX 2771 56 549 55:29.80 2:57:32.52 2:58:46.45 1:13.93 13:33/M
9 Tonya Penfield San Antonio TX 2587 59 566 58:55.42 3:00:58.14 3:02:01.47 1:03.33 13:49/M
10 Patricia McCabe Garden Ridge TX 2444 56 612 1:11:07.81 3:13:10.53 3:14:13.43 1:02.90 14:45/M
11 Julie Lahti San Antonio TX 2213 58 615 1:12:05.58 3:14:08.30 3:15:14.98 1:06.68 14:49/M
12 Debbie Schneider San Marcos TX 1003 55 619 1:12:40.95 3:14:43.67 3:15:33.01 0:49.34 14:52/M
13 Katherine Henry Canyon Lake TX 2677 57 624 1:14:07.26 3:16:09.98 3:17:18.60 1:08.62 14:58/M
14 Norma Villarreal New Braunfels TX 2235 59 636 1:19:08.09 3:21:10.81 3:21:59.52 0:48.71 15:21/M
15 Kim Cox TEMPLE TX 2320 56 645 1:22:24.29 3:24:27.01 3:25:55.65 1:28.64 15:36/M
16 Krista Hunter Garden Ridge TX 2786 56 656 1:27:06.67 3:29:09.39 3:30:24.32 1:14.93 15:58/M
17 Teresa Smith Schertz TX 2198 57 661 1:28:19.67 3:30:22.39 3:31:10.15 0:47.76 16:04/M
18 Judy Freund San Antonio TX 2367 55 674 1:35:12.14 3:37:14.86 3:38:50.45 1:35.59 16:35/M
19 Janice Harris Calgary AB 2459 55 675 1:35:14.64 3:37:17.36 3:38:39.81 1:22.45 16:35/M
20 Isabel Roque San Antonio TX 2851 56 682 1:45:26.39 3:47:29.11 3:47:55.34 0:26.23 17:22/M
21 Yvonne Torres San Antonio TX 2562 55 686 1:50:49.36 3:52:52.08 3:53:19.90 0:27.82 17:47/M
 

Female 60 to 64

Place Name City Bib No Age Overall Time Back Chip Time Gun Time Chip Diff Pace
1 Irene Chard Cibolo TX 2626 64 362   2:26:59.50 2:28:03.44 1:03.94 11:13/M
2 Deb McMullan Iraan TX 1052 63 383 2:12.24 2:29:11.74 2:30:34.59 1:22.85 11:23/M
3 Diane Boren San Antonio TX 2326 63 453 14:39.36 2:41:38.86 2:41:44.33 0:05.47 12:20/M
4 Leslie Crumb Iowa Park TX 2549 60 478 17:43.90 2:44:43.40 2:45:47.56 1:04.16 12:34/M
5 Vicky Geisler New Braunfels TX 2738 64 505 22:07.97 2:49:07.47 2:50:38.02 1:30.55 12:55/M
6 Teresa Medina Kyle TX 2194 64 585 37:27.49 3:04:26.99 3:05:42.07 1:15.08 14:05/M
7 Cynthia Lara San Antonio TX 2134 61 617 47:08.96 3:14:08.46 3:15:35.39 1:26.93 14:49/M
8 Delores Villarreal Stafford TX 2526 63 638 55:15.09 3:22:14.59 3:23:12.55 0:57.96 15:26/M
9 Barbara Scheib San Antonio TX 2385 63 688 1:27:11.69 3:54:11.19 3:55:27.36 1:16.17 17:53/M
 

Female 65 to 69

Place Name City Bib No Age Overall Time Back Chip Time Gun Time Chip Diff Pace
1 Rocio Rojas San Antonio TX 2669 66 643   3:23:32.96 3:24:13.96 0:41.00 15:32/M
2 Irma De Luna Brownsville TX 2904 68 691 31:34.28 3:55:07.24 3:55:13.37 0:06.13 17:57/M
 

Male Overall Winners

Place Name City Bib No Age Overall Time Back Chip Time Gun Time Chip Diff Pace
1 Brent Hollingsworth Austin TX 2825 42 1   1:27:27.76 1:27:27.77 0:00.01 6:41/M
2 Ryan Biekle 2927 22 2 2:42.10 1:30:09.86 1:30:13.88 0:04.02 6:53/M
3 Adam Krueger Austin TX 2890 30 4 7:13.79 1:34:41.55 1:34:44.23 0:02.68 7:14/M
 

Male Masters Winners

Place Name City Bib No Age Overall Time Back Chip Time Gun Time Chip Diff Pace
1 Allen Darilek San Antonio TX 2766 44 5   1:35:39.65 1:35:45.66 0:06.01 7:18/M
 

Male 12 to 15

Place Name City Bib No Age Overall Time Back Chip Time Gun Time Chip Diff Pace
1 Dallas Post Katy TX 2568 13 24   1:43:54.90 1:43:55.88 0:00.98 7:56/M
2 John Post Katy TX 2567 14 109 15:54.94 1:59:49.84 1:59:50.58 0:00.74 9:09/M
3 Bryce Tomasek Victoria TX 2832 15 168 23:07.99 2:07:02.89 2:07:27.59 0:24.70 9:42/M
 

Male 16 to 19

Place Name City Bib No Age Overall Time Back Chip Time Gun Time Chip Diff Pace
1 Nicholas Marullo Round Rock TX 2819 17 56   1:52:21.57 1:52:33.24 0:11.67 8:35/M
2 Ethan Wilson McAllen TX 1062 16 95 5:45.67 1:58:07.24 1:58:15.42 0:08.18 9:01/M
3 Ryker Behrens San Antontio TX 2418 18 397 39:17.34 2:31:38.91 2:33:02.79 1:23.88 11:35/M
 

Male 20 to 24

Place Name City Bib No Age Overall Time Back Chip Time Gun Time Chip Diff Pace
1 Justin Sanchez San Antonio TX 2884 24 16   1:41:39.75 1:42:10.78 0:31.03 7:46/M
2 Jory Rogers Canyon Lake TX 2521 23 31 3:56.14 1:45:35.89 1:46:17.12 0:41.23 8:04/M
3 Peter Buhler Plano TX 2780 22 67 12:08.53 1:53:48.28 1:53:48.28 8:41/M
4 Brian Ward San Antonio TX 2792 24 73 12:56.47 1:54:36.22 1:54:49.79 0:13.57 8:45/M
5 Kyle Bowen San Antonio TX 2361 24 99 17:05.87 1:58:45.62 1:58:57.66 0:12.04 9:04/M
6 Zackary Evans New Braunfels TX 2409 20 106 18:00.07 1:59:39.82 2:00:18.04 0:38.22 9:08/M
7 Mitchell Jennings orange TX 2776 24 134 20:38.59 2:02:18.34 2:02:45.84 0:27.50 9:20/M
8 Jesid Post Katy TX 2566 21 150 22:49.31 2:04:29.06 2:04:30.18 0:01.12 9:30/M
9 Stephen Teeter Austin TX 2623 20 228 31:34.59 2:13:14.34 2:13:28.08 0:13.74 10:10/M
10 Maxwell Jones San Antonio TX 2659 22 244 33:11.34 2:14:51.09 2:14:54.04 0:02.95 10:18/M
11 Cayde Heflin New Braunfels TX 2924 20 317 40:56.82 2:22:36.57 2:23:53.65 1:17.08 10:53/M
12 Benjamin Strong Cedar Park TX 2732 23 323 42:26.91 2:24:06.66 2:25:28.77 1:22.11 11:00/M
13 Christopher Sloan Dallas TX 2585 24 569 1:19:42.28 3:01:22.03 3:02:07.67 0:45.64 13:51/M
 

Male 25 to 29

Place Name City Bib No Age Overall Time Back Chip Time Gun Time Chip Diff Pace
1 Nico Quaday San Antonio TX 2131 27 12   1:39:13.87 1:39:22.36 0:08.49 7:34/M
2 Ej Hibbler Columbus TX 2197 26 30 6:01.86 1:45:15.73 1:45:48.97 0:33.24 8:02/M
3 Stuart Harris Austin TX 2718 26 151 25:39.61 2:04:53.48 2:05:04.28 0:10.80 9:32/M
4 Garrett Wentz Lubbock TX 2441 27 173 28:24.87 2:07:38.74 2:07:42.73 0:03.99 9:45/M
5 Travis Mendiola San Antonio TX 2917 29 178 29:13.15 2:08:27.02 2:09:18.38 0:51.36 9:48/M
6 Noel Garza Mcallen TX 2806 29 198 31:55.93 2:11:09.80 2:12:31.55 1:21.75 10:01/M
7 Matthew Bryant Round Rock TX 2583 28 205 32:12.51 2:11:26.38 2:12:21.18 0:54.80 10:02/M
8 Trevor Becker Schertz TX 2611 26 212 32:52.27 2:12:06.14 2:12:31.46 0:25.32 10:05/M
9 Patrick Sloan HOUSTON TX 2614 27 214 32:54.67 2:12:08.54 2:12:52.59 0:44.05 10:05/M
10 Craig Bolyard New Braunfels TX 2399 28 294 41:09.18 2:20:23.05 2:21:16.73 0:53.68 10:43/M
11 Michael Burton Austin TX 2670 25 399 52:43.43 2:31:57.30 2:32:10.74 0:13.44 11:36/M
12 Daniel Harbison New Braunfels TX 2768 28 462 1:03:24.19 2:42:38.06 2:43:44.59 1:06.53 12:25/M
13 Thomas Magbee Austin TX 2539 28 631 1:39:30.89 3:18:44.76 3:20:10.80 1:26.04 15:10/M
 

Male 30 to 34

Place Name City Bib No Age Overall Time Back Chip Time Gun Time Chip Diff Pace
1 Cory Knop Cedar Park TX 2106 33 8   1:37:08.57 1:37:13.33 0:04.76 7:25/M
2 Kyle Talbott San Antonio TX 2308 33 20 6:05.78 1:43:14.35 1:43:30.26 0:15.91 7:53/M
3 Michael Kennedy San Antonio TX 2741 32 21 6:12.72 1:43:21.29 1:43:30.93 0:09.64 7:53/M
4 Adam Henderson Spring TX 2331 31 32 8:31.03 1:45:39.60 1:45:52.06 0:12.46 8:04/M
5 Adam Brown San Marcos TX 2252 33 49 12:38.61 1:49:47.18 1:49:54.65 0:07.47 8:23/M
6 Robert G. Soto Mission TX 2645 33 50 12:56.02 1:50:04.59 1:50:12.15 0:07.56 8:24/M
7 Daniel Anderson Spring TX 2662 33 52 13:18.37 1:50:26.94 1:50:34.59 0:07.65 8:26/M
8 Chris Ioset Schertz TX 2921 34 54 15:06.25 1:52:14.82 1:52:21.83 0:07.01 8:34/M
9 Kevin Maurice Austin TX 2606 30 89 19:11.92 1:56:20.49 1:57:18.59 0:58.10 8:53/M
10 Justin Olney San Antonio TX 2826 33 124 23:40.25 2:00:48.82 2:01:06.96 0:18.14 9:13/M
11 Alicia Picou Austin TX 2364 32 200 34:09.25 2:11:17.82 2:12:02.38 0:44.56 10:01/M
12 Grady Frank New Braunfels TX 2612 34 206 34:31.95 2:11:40.52 2:12:57.00 1:16.48 10:03/M
13 Justin Hall Austin TX 2226 33 216 35:07.54 2:12:16.11 2:12:53.15 0:37.04 10:06/M
14 Will Blalack Austin TX 2933 34 233 36:46.42 2:13:54.99 2:15:00.90 1:05.91 10:13/M
15 Michael Davenport Cedar Park TX 2609 30 238 37:07.24 2:14:15.81 2:15:18.09 1:02.28 10:15/M
16 Austin Johnson Cibolo TX 2926 33 269 41:39.75 2:18:48.32 2:19:43.53 0:55.21 10:36/M
17 Joshua Lee Conroe TX 2605 32 290 43:05.03 2:20:13.60 2:20:46.73 0:33.13 10:42/M
18 Jonathan Mann Cedar Park TX 2607 30 298 43:30.56 2:20:39.13 2:21:42.30 1:03.17 10:44/M
19 Andrew Tiemeier New Braunfels TX 2620 31 303 44:44.12 2:21:52.69 2:22:32.31 0:39.62 10:50/M
20 Bobby Shaw Austin TX 2646 33 307 44:55.47 2:22:04.04 2:22:47.08 0:43.04 10:51/M
21 Kyle Lackey The Woodlands TX 2889 34 433 1:00:24.26 2:37:32.83 2:38:05.37 0:32.54 12:02/M
22 Justin Holmes Austin TX 2269 34 485 1:08:53.81 2:46:02.38 2:47:25.97 1:23.59 12:40/M
23 Abayomi Ajasin Schertz TX 2284 33 571 1:24:28.51 3:01:37.08 3:02:10.37 0:33.29 13:52/M
24 Casey Chance New Braunfels TX 2558 32 600 1:30:44.57 3:07:53.14 3:08:43.34 0:50.20 14:21/M
25 Blake Lacy Schertz TX 2185 34 651 1:49:49.70 3:26:58.27 3:27:36.14 0:37.87 15:48/M
 

Male 35 to 39

Place Name City Bib No Age Overall Time Back Chip Time Gun Time Chip Diff Pace
1 Ryan Smith San Antonio TX 2894 36 10   1:38:42.58 1:38:46.47 0:03.89 7:32/M
2 Krzysztof Bytomski New Braunfels TX 2657 37 11 0:10.49 1:38:53.07 1:38:59.42 0:06.35 7:33/M
3 Garth Erickson San Antonio TX 2922 39 23 4:56.77 1:43:39.35 1:43:58.21 0:18.86 7:55/M
4 Rodolfo Guerra New branfels TX 2692 35 27 5:51.55 1:44:34.13 1:46:10.27 1:36.14 7:59/M
5 Leland Mangrum Austin TX 2631 35 28 5:58.81 1:44:41.39 1:44:47.45 0:06.06 7:59/M
6 Justin Talley Cibolo TX 2529 36 36 9:02.21 1:47:44.79 1:47:55.92 0:11.13 8:13/M
7 Ben Evans Austin TX 2871 37 48 11:00.83 1:49:43.41 1:49:46.62 0:03.21 8:23/M
8 Eric Francis New Braunfels TX 2340 39 80 16:44.95 1:55:27.53 1:56:35.28 1:07.75 8:49/M
9 Ryan Samoheyl Sugar Land TX 2530 35 84 16:54.48 1:55:37.06 1:56:34.50 0:57.44 8:50/M
10 Douglas Moore Austin TX 2210 37 93 18:40.28 1:57:22.86 1:57:42.61 0:19.75 8:58/M
11 Christopher Foglesong New Braunfels TX 2303 35 101 20:20.86 1:59:03.44 1:59:28.66 0:25.22 9:05/M
12 Donald Fritz San Antonio TX 2847 38 129 22:41.78 2:01:24.36 2:01:41.96 0:17.60 9:16/M
13 Chris Owen New Braunfels TX 2281 39 135 23:38.71 2:02:21.29 2:02:35.59 0:14.30 9:20/M
14 Joe Coughlin New Braunfels TX 2906 36 141 24:37.92 2:03:20.50 2:04:37.72 1:17.22 9:25/M
15 Rich Shaver San Antonio TX 2831 37 162 27:45.71 2:06:28.29 2:07:07.23 0:38.94 9:39/M
16 Bryan Furler Austin TX 2180 38 171 28:51.08 2:07:33.66 2:07:52.32 0:18.66 9:44/M
17 Robert Dulaney BELLAIRE TX 2551 39 187 30:48.04 2:09:30.62 2:09:43.05 0:12.43 9:53/M
18 Michael Pullen Schertz TX 2881 35 259 38:20.05 2:17:02.63 2:17:46.30 0:43.67 10:28/M
19 Chris Eaton New Braunfels TX 2762 36 281 40:38.51 2:19:21.09 2:19:30.75 0:09.66 10:38/M
20 Jeff Post Katy TX 2565 38 286 41:15.78 2:19:58.36 2:20:46.17 0:47.81 10:41/M
21 Ian Warshak San Antonio TX 1056 37 335 46:15.77 2:24:58.35 2:25:54.74 0:56.39 11:04/M
22 Shaun Shephard New Braunfels TX 2516 38 380 50:02.49 2:28:45.07 2:28:53.94 0:08.87 11:21/M
23 Karl Loeffler Marion TX 2763 37 404 53:49.31 2:32:31.89 2:33:23.42 0:51.53 11:39/M
24 Jason Preston New Braunfels TX 2546 38 430 58:17.14 2:36:59.72 2:38:16.53 1:16.81 11:59/M
25 Sean Stowers Selma TX 2304 35 517 1:12:56.84 2:51:39.42 2:53:03.89 1:24.47 13:06/M
26 John Aureli San Antonio, Texas TX 2601 38 525 1:13:52.60 2:52:35.18 2:53:49.75 1:14.57 13:10/M
27 Juan Aguilar Marion TX 2603 36 586 1:25:54.36 3:04:36.94 3:06:41.25 2:04.31 14:05/M
28 Ralph Lozano San Antonio TX 2869 39 623 1:37:14.67 3:15:57.25 3:16:49.34 0:52.09 14:57/M
29 Curtis Dane Sorensen San Antonio TX 2208 38 648 1:47:38.77 3:26:21.35 3:27:03.19 0:41.84 15:45/M
 

Male 40 to 44

Place Name City Bib No Age Overall Time Back Chip Time Gun Time Chip Diff Pace
1 Matt Daniels San Antonio TX 2892 41 7   1:36:57.20 1:36:59.33 0:02.13 7:24/M
2 Bien Milan San Antonio TX 2736 44 26 7:29.36 1:44:26.56 1:44:45.92 0:19.36 7:58/M
3 Simon Toozoff San Antonio TX 2838 41 29 7:57.13 1:44:54.33 1:45:04.49 0:10.16 8:00/M
4 Douglas Conyers San Antonio TX 2675 42 39 11:35.70 1:48:32.90 1:48:37.17 0:04.27 8:17/M
5 Jason Wolford San Antonio TX 2302 44 42 12:04.64 1:49:01.84 1:49:06.22 0:04.38 8:19/M
6 Danny Silva Laredo TX 2506 41 43 12:17.73 1:49:14.93 1:49:26.26 0:11.33 8:20/M
7 Jeff Loman New Braunfels TX 2783 44 44 12:22.09 1:49:19.29 1:49:37.62 0:18.33 8:21/M
8 Shawn Rossi New Braunfels TX 1059 43 65 16:22.57 1:53:19.77 1:53:46.03 0:26.26 8:39/M
9 Rito Acuna San Antonio TX 2773 40 69 17:18.23 1:54:15.43 1:54:20.08 0:04.65 8:43/M
10 Chris Roach San Antonio TX 1024 44 71 17:27.44 1:54:24.64 1:54:33.63 0:08.99 8:44/M
11 Brant Wilson McAllen TX 2190 43 96 21:10.17 1:58:07.37 1:58:15.51 0:08.14 9:01/M
12 Justin Stewart austin TX 2119 40 121 23:35.61 2:00:32.81 2:01:45.67 1:12.86 9:12/M
13 Doug Repasi New Braunfels TX 2178 40 123 23:42.22 2:00:39.42 2:00:55.22 0:15.80 9:13/M
14 Joe Rotunda Austin TX 2866 42 184 32:17.28 2:09:14.48 2:09:43.95 0:29.47 9:52/M
15 Zach McAuley San Antonio TX 2200 42 213 35:10.74 2:12:07.94 2:12:26.02 0:18.08 10:05/M
16 Jason Williams Schertz TX 2207 42 218 35:21.12 2:12:18.32 2:12:52.07 0:33.75 10:06/M
17 D'Lane Moore Austin TX 2211 40 297 43:39.98 2:20:37.18 2:20:58.19 0:21.01 10:44/M
18 Scott McLeod Odessa TX 2857 41 320 46:01.99 2:22:59.19 2:24:38.25 1:39.06 10:55/M
19 Levi Pool San Antonio TX 1057 40 337 48:02.47 2:24:59.67 2:25:56.02 0:56.35 11:04/M
20 Pat Keith Patteson Boerne TX 2752 42 358 49:43.48 2:26:40.68 2:27:36.12 0:55.44 11:12/M
21 Fidel Garza Jr. Palmhurst TX 2640 42 405 55:34.86 2:32:32.06 2:33:24.96 0:52.90 11:39/M
22 Warren Udd Victoria TX 2276 41 409 56:23.12 2:33:20.32 2:34:06.75 0:46.43 11:42/M
23 Jeremy Sexton Austin TX 2909 42 429 59:47.26 2:36:44.46 2:37:41.04 0:56.58 11:58/M
24 Charlie Hale Hurst TX 2542 42 519 1:14:59.16 2:51:56.36 2:52:40.58 0:44.22 13:07/M
25 Javier Escobar Schertz TX 2439 42 521 1:15:11.34 2:52:08.54 2:52:59.13 0:50.59 13:08/M
26 Seth Holland Fort Sam Houston TX 2354 42 563 1:23:39.22 3:00:36.42 3:01:35.60 0:59.18 13:47/M
27 Kevin Stucker Cibolo TX 2844 44 575 1:25:22.01 3:02:19.21 3:03:46.03 1:26.82 13:55/M
28 Stephen Kinnison Cypress TX 2203 43 597 1:30:18.38 3:07:15.58 3:08:03.91 0:48.33 14:18/M
29 Garry Reagan Temple TX 2318 42 644 1:47:24.49 3:24:21.69 3:25:51.37 1:29.68 15:36/M
30 Brandon Gilbert San Antonio TX 2229 43 662 1:53:26.62 3:30:23.82 3:31:56.77 1:32.95 16:04/M
 

Male 45 to 49

Place Name City Bib No Age Overall Time Back Chip Time Gun Time Chip Diff Pace
1 Michael Williams New Braunfels TX 2151 45 18   1:42:15.69 1:42:19.53 0:03.84 7:48/M
2 Clif Coleman Midland TX 2655 47 19 0:49.91 1:43:05.60 1:43:12.51 0:06.91 7:52/M
3 Roger Kramer San Antonio TX 2533 47 25 1:47.36 1:44:03.05 1:44:13.61 0:10.56 7:57/M
4 Steven Bilbrey New Braunfels TX 2863 49 63 10:57.96 1:53:13.65 1:53:15.37 0:01.72 8:39/M
5 Emmett Gill San Antonio TX 2632 48 74 12:20.77 1:54:36.46 1:55:54.55 1:18.09 8:45/M
6 Viet Truong Cypress TX 2216 48 97 16:09.16 1:58:24.85 1:58:37.85 0:13.00 9:02/M
7 Mike Boucher San Antonio TX 2796 49 98 16:27.85 1:58:43.54 1:58:50.88 0:07.34 9:04/M
8 Eric Shawn Gilliam San Antonio TX 1049 45 111 17:35.77 1:59:51.46 2:00:15.51 0:24.05 9:09/M
9 Juan Cruz Laredo TX 2817 47 126 18:57.19 2:01:12.88 2:01:18.09 0:05.21 9:15/M
10 Darrell Tomasek Victoria TX 2830 45 167 24:47.16 2:07:02.85 2:07:27.49 0:24.64 9:42/M
11 Michael Singer San Antonio TX 2681 49 181 26:19.54 2:08:35.23 2:09:03.29 0:28.06 9:49/M
12 Kreig Cressione Cibolo TX 2127 47 203 29:07.61 2:11:23.30 2:12:22.59 0:59.29 10:02/M
13 Walter Meitzen San Marcos TX 2791 45 219 30:04.03 2:12:19.72 2:12:31.62 0:11.90 10:06/M
14 Eric Johnson Austin TX 2629 46 248 33:21.70 2:15:37.39 2:16:05.55 0:28.16 10:21/M
15 Rusty Teeter Austin TX 2622 48 267 36:29.19 2:18:44.88 2:18:59.24 0:14.36 10:35/M
16 Kyle McDaniel Helotes TX 2862 46 274 36:39.99 2:18:55.68 2:19:48.98 0:53.30 10:36/M
17 Nathan Shapiro San Antonio TX 2396 49 285 37:28.10 2:19:43.79 2:20:24.48 0:40.69 10:40/M
18 Michael Adams San Antonio TX 2837 46 299 38:48.66 2:21:04.35 2:21:15.35 0:11.00 10:46/M
19 Clint Heflin New Braunfels TX 2923 47 315 40:20.61 2:22:36.30 2:23:53.90 1:17.60 10:53/M
20 Wade Rush pleasanton TX 2292 48 355 44:07.00 2:26:22.69 2:27:41.20 1:18.51 11:10/M
21 Fausto Meza New Braunfels TX 2886 48 379 46:16.37 2:28:32.06 2:29:03.48 0:31.42 11:20/M
22 Scott Jones Luling TX 2408 49 384 46:59.70 2:29:15.39 2:29:39.26 0:23.87 11:24/M
23 Quentin Snow San Antonio TX 2757 45 402 50:05.13 2:32:20.82 2:33:25.37 1:04.55 11:38/M
24 J. Mario Gonzalez McAllen TX 2538 49 411 51:05.50 2:33:21.19 2:33:48.59 0:27.40 11:42/M
25 Arron Ario Richmond TX 2136 46 418 52:54.34 2:35:10.03 2:36:50.62 1:40.59 11:51/M
26 Mike Fager San Antonio TX 2117 47 420 53:09.29 2:35:24.98 2:36:35.75 1:10.77 11:52/M
27 Mark Goldman San Antonio TX 2255 47 531 1:11:36.18 2:53:51.87 2:54:16.97 0:25.10 13:16/M
28 Julio Campos San Antonio TX 2902 46 533 1:11:45.98 2:54:01.67 2:55:13.35 1:11.68 13:17/M
29 Rafael Leal New Braunfels TX 2310 46 558 1:16:11.03 2:58:26.72 2:59:12.91 0:46.19 13:37/M
30 Tim Walker San Antonio TX 1011 45 576 1:20:07.11 3:02:22.80 3:02:52.32 0:29.52 13:55/M
31 Jay Richards San Antonio TX 2171 45 609 1:29:57.67 3:12:13.36 3:13:46.02 1:32.66 14:40/M
 

Male 50 to 54

Place Name City Bib No Age Overall Time Back Chip Time Gun Time Chip Diff Pace
1 Steven Avampato Midland TX 2931 52 38   1:48:23.79 1:48:30.31 0:06.52 8:16/M
2 Joe Tammaro San Antonio TX 2918 54 59 4:31.88 1:52:55.67 1:53:22.02 0:26.35 8:37/M
3 Mark Fender Lytle TX 2412 52 75 6:17.70 1:54:41.49 1:55:07.37 0:25.88 8:45/M
4 David Leach San Antonio TX 2492 54 90 7:59.02 1:56:22.81 1:57:53.96 1:31.15 8:53/M
5 Brad Anderson San Antonio TX 1046 54 130 13:02.83 2:01:26.62 2:02:40.74 1:14.12 9:16/M
6 Jimbo Jennings Orange TX 2674 51 155 17:05.35 2:05:29.14 2:05:55.79 0:26.65 9:35/M
7 Joseph Hollifield Round Rock TX 2589 52 195 22:33.30 2:10:57.09 2:11:12.44 0:15.35 10:00/M
8 Greg Kashouty Bergheim TX 2592 53 196 22:33.43 2:10:57.22 2:11:12.56 0:15.34 10:00/M
9 Peter Laskiewicz Houston TX 1063 50 246 26:56.87 2:15:20.66 2:15:48.81 0:28.15 10:20/M
10 David Fahey San Antonio TX 2820 53 253 27:34.97 2:15:58.76 2:16:22.13 0:23.37 10:23/M
11 Andy Hostetler Schertz TX 2888 50 276 30:34.54 2:18:58.33 2:19:12.23 0:13.90 10:36/M
12 Leo Munoz Helotes TX 2518 50 325 35:45.98 2:24:09.77 2:24:17.75 0:07.98 11:00/M
13 Joe Sewell Floresville TX 2700 51 333 36:17.00 2:24:40.79 2:25:14.49 0:33.70 11:03/M
14 Steve Gonzales San Antonio TX 2410 51 427 48:16.49 2:36:40.28 2:37:14.91 0:34.63 11:58/M
15 Ricky Kyles Cibolo TX 2268 53 482 57:15.20 2:45:38.99 2:46:50.72 1:11.73 12:39/M
16 Patrick Lopardi Helotes TX 2147 54 527 1:04:29.57 2:52:53.36 2:54:00.12 1:06.76 13:12/M
17 Richard Owen Canyon Lake TX 2366 54 535 1:06:08.75 2:54:32.54 2:55:37.73 1:05.19 13:19/M
18 Armando Garcia McAllen TX 2115 51 539 1:06:35.71 2:54:59.50 2:56:22.04 1:22.54 13:21/M
19 Raymond Torres San Antonio TX 2563 54 542 1:07:08.71 2:55:32.50 2:55:58.36 0:25.86 13:24/M
20 Chris Silhan Spring TX 2202 51 552 1:09:26.38 2:57:50.17 2:59:01.02 1:10.85 13:35/M
21 Alden Balmer Spicewood TX 2572 52 592 1:17:25.98 3:05:49.77 3:06:13.33 0:23.56 14:11/M
22 Carlos Laurel San Antonio TX 2503 53 695 2:10:52.47 3:59:16.26 4:01:03.84 1:47.58 18:16/M
23 John Aranda San Antonio TX 1009 52 696 2:11:07.17 3:59:30.96 4:01:08.67 1:37.71 18:17/M
 

Male 55 to 59

Place Name City Bib No Age Overall Time Back Chip Time Gun Time Chip Diff Pace
1 Preston Tatum Kingsbury TX 2564 57 14   1:40:07.60 1:40:16.58 0:08.98 7:39/M
2 Chris Venicx New Braunfels TX 1001 58 15 0:01.25 1:40:08.85 1:40:12.00 0:03.15 7:39/M
3 James Perry San Antonio TX 2402 56 66 13:34.77 1:53:42.37 1:54:02.08 0:19.71 8:41/M
4 Chris Moore Round Rock TX 2297 56 87 15:43.59 1:55:51.19 1:56:11.98 0:20.79 8:51/M
5 Donald Hooper San Antonio TX 2557 55 107 19:36.96 1:59:44.56 2:01:18.82 1:34.26 9:08/M
6 Glen Marumoto Pearl City HI 2733 56 137 22:33.41 2:02:41.01 2:02:56.89 0:15.88 9:22/M
7 Hector Hinojosa San Antonio TX 2571 55 142 23:17.18 2:03:24.78 2:04:03.54 0:38.76 9:25/M
8 Gary Wylie Joshua TX 2789 56 183 29:01.28 2:09:08.88 2:09:27.10 0:18.22 9:51/M
9 Steve Riordan Seguin TX 2550 58 242 34:36.41 2:14:44.01 2:15:14.22 0:30.21 10:17/M
10 Kevin Meehan Austin TX 2744 56 277 38:53.45 2:19:01.05 2:19:43.66 0:42.61 10:37/M
11 John Fumagalli New Braunfels TX 2227 56 289 39:58.04 2:20:05.64 2:21:03.04 0:57.40 10:42/M
12 Joseph Adams New Braunfels TX 2102 59 328 44:11.33 2:24:18.93 2:25:31.92 1:12.99 11:01/M
13 Frank Arredondo McAllen TX 2454 58 392 51:14.16 2:31:21.76 2:32:01.82 0:40.06 11:33/M
14 Mark Heimer Cibolo TX 2561 55 437 58:53.89 2:39:01.49 2:40:10.87 1:09.38 12:08/M
15 John Stimeling Jr Seguin TX 2653 59 442 1:00:09.85 2:40:17.45 2:41:10.99 0:53.54 12:14/M
16 Rich Ronald SAN ANTONIO TX 2770 58 550 1:17:25.04 2:57:32.64 2:58:46.47 1:13.83 13:33/M
17 Jeff Beckman New Braunfels TX 2214 57 577 1:22:38.20 3:02:45.80 3:03:58.28 1:12.48 13:57/M
18 Donald Lahti San Antonio TX 2212 59 616 1:34:00.75 3:14:08.35 3:15:15.59 1:07.24 14:49/M
19 David Schneider San Marcos TX 1004 56 620 1:34:36.50 3:14:44.10 3:15:33.15 0:49.05 14:52/M
 

Male 60 to 64

Place Name City Bib No Age Overall Time Back Chip Time Gun Time Chip Diff Pace
1 Thomas Thomson Shavano Park TX 2170 63 37   1:48:10.94 1:48:12.85 0:01.91 8:15/M
2 Luis Cabrera AUSTIN TX 2108 61 235 25:59.90 2:14:10.84 2:19:31.65 5:20.81 10:15/M
3 Roger Gregoire New Braunfels TX 2272 61 280 31:00.61 2:19:11.55 2:19:24.06 0:12.51 10:37/M
4 Glenn Bailey Howe TX 2445 63 330 36:22.00 2:24:32.94 2:25:30.81 0:57.87 11:02/M
5 Bob Wilson Shady Shores TX 2547 62 374 39:35.92 2:27:46.86 2:29:04.14 1:17.28 11:17/M
6 Dan Geisler New Braunfels TX 2739 64 565 1:12:31.24 3:00:42.18 3:02:13.18 1:31.00 13:48/M
7 Dennis Guadarrama San Antonio TX 1045 60 572 1:13:38.36 3:01:49.30 3:03:26.10 1:36.80 13:53/M
 

Male 65 to 69

Place Name City Bib No Age Overall Time Back Chip Time Gun Time Chip Diff Pace
1 David Patterson Corpus Christi TX 2772 67 81   1:55:30.62 1:55:54.52 0:23.90 8:49/M
2 Roger Quayle Wimberley TX 2722 65 250 20:23.61 2:15:54.23 2:16:20.21 0:25.98 10:22/M
3 Gary Johnson New braunfels TX 2234 65 275 23:27.06 2:18:57.68 2:19:23.29 0:25.61 10:36/M
4 Bob Moore DeSoto TX 2414 69 406 37:06.67 2:32:37.29 2:34:01.58 1:24.29 11:39/M
5 Vince Fonner Schertz TX 2470 66 642 1:27:48.80 3:23:19.42 3:23:54.88 0:35.46 15:31/M
 

Male 70 and Over

Place Name City Bib No Age Overall Time Back Chip Time Gun Time Chip Diff Pace
1 Nick Quezada Mission TX 2148 71 361   2:26:54.99 2:27:08.30 0:13.31 11:13/M
2 Bob Otto Austin TX 1033 72 413 6:50.38 2:33:45.37 2:34:47.87 1:02.50 11:44/M
3 Michael Cook Katy TX 2391 72 443 13:37.75 2:40:32.74 2:41:15.15 0:42.41 12:15/M
4 Ed Krome The Villages FL 2848 70 449 14:27.82 2:41:22.81 2:42:19.25 0:56.44 12:19/M
5 Darrel Morrison San Antonio TX 2316 80 673 1:10:18.43 3:37:13.42 3:38:48.84 1:35.42 16:35/M